Observation data for Amarillo 7 South Southeast on 11/19/2019      Previous  Date  Next       Current Mesonet Observations  Soil Data  Daily Summary Page  Observations in Plain Language
KAM1 190600Z 20001KT 04/M00 A3001 RMK A01 T00411001  RH  074%=      5-min Rain = 0
KAM1 190601Z 20000KT 04/M00 A3001 RMK A01 T00411001  RH  074%=      5-min Rain = 0
KAM1 190602Z 00000KT 04/M00 A3001 RMK A01 T00411003  RH  073%=      5-min Rain = 0
KAM1 190603Z 18001KT 04/M00 A3001 RMK A01 T00411004  RH  072%=      5-min Rain = 0
KAM1 190604Z 17000KT 04/M01 A3001 RMK A01 T00421007  RH  071%=      5-min Rain = 0
KAM1 190605Z 16000KT 04/M01 A3001 RMK A01 T00391009  RH  071%=      5-min Rain = 0
KAM1 190606Z 12000KT 04/M01 A3001 RMK A01 T00371011  RH  071%=      5-min Rain = 0
KAM1 190607Z 16001KT 03/M01 A3001 RMK A01 T00341012  RH  071%=      5-min Rain = 0
KAM1 190608Z 17001KT 03/M02 A3001 RMK A01 T00321015  RH  071%=      5-min Rain = 0
KAM1 190609Z 17002KT 03/M02 A3001 RMK A01 T00301016  RH  071%=      5-min Rain = 0
KAM1 190610Z 16002KT 03/M02 A3001 RMK A01 T00301016  RH  072%=      5-min Rain = 0
KAM1 190611Z 16002KT 03/M01 A3001 RMK A01 T00301014  RH  073%=      5-min Rain = 0
KAM1 190612Z 16002KT 03/M01 A3001 RMK A01 T00291012  RH  074%=      5-min Rain = 0
KAM1 190613Z 15002KT 03/M01 A30 RMK A01 T00301009  RH  075%=      5-min Rain = 0
KAM1 190614Z 15002KT 03/M01 A30 RMK A01 T00321008  RH  075%=      5-min Rain = 0
KAM1 190615Z 15002KT 04/M01 A30 RMK A01 T00371005  RH  074%=      5-min Rain = 0
KAM1 190616Z 15002KT 04/M01 A30 RMK A01 T00391006  RH  072%=      5-min Rain = 0
KAM1 190617Z 13002KT 04/M01 A30 RMK A01 T00401006  RH  072%=      5-min Rain = 0
KAM1 190618Z 14002KT 04/M01 A30 RMK A01 T00401005  RH  072%=      5-min Rain = 0
KAM1 190619Z 15002KT 04/M01 A30 RMK A01 T00391005  RH  073%=      5-min Rain = 0
KAM1 190620Z 16003KT 04/M01 A30 RMK A01 T00391007  RH  072%=      5-min Rain = 0
KAM1 190621Z 16003KT 04/M01 A30 RMK A01 T00381007  RH  072%=      5-min Rain = 0
KAM1 190622Z 16003KT 04/M01 A30 RMK A01 T00371006  RH  073%=      5-min Rain = 0
KAM1 190623Z 15002KT 04/M00 A30 RMK A01 T00361003  RH  075%=      5-min Rain = 0
KAM1 190624Z 15003KT 04/00 A30 RMK A01 T00360002  RH  078%=      5-min Rain = 0
KAM1 190625Z 16003KT 04/00 A30 RMK A01 T00350004  RH  080%=      5-min Rain = 0
KAM1 190626Z 16003KT 04/01 A30 RMK A01 T00350006  RH  081%=      5-min Rain = 0
KAM1 190627Z 16003KT 04/00 A30 RMK A01 T00350004  RH  080%=      5-min Rain = 0
KAM1 190628Z 17003KT 04/00 A30 RMK A01 T00350002  RH  079%=      5-min Rain = 0
KAM1 190629Z 17003KT 03/M00 A30 RMK A01 T00341001  RH  078%=      5-min Rain = 0
KAM1 190630Z 17004KT 03/M00 A30 RMK A01 T00331003  RH  077%=      5-min Rain = 0
KAM1 190631Z 18004KT 03/M01 A30 RMK A01 T00321005  RH  077%=      5-min Rain = 0
KAM1 190632Z 18004KT 03/M01 A30 RMK A01 T00321006  RH  076%=      5-min Rain = 0
KAM1 190633Z 18004KT 03/M01 A30 RMK A01 T00311009  RH  075%=      5-min Rain = 0
KAM1 190634Z 18005KT 03/M01 A30 RMK A01 T00301011  RH  074%=      5-min Rain = 0
KAM1 190635Z 18005KT 03/M01 A30 RMK A01 T00281013  RH  074%=      5-min Rain = 0
KAM1 190636Z 18005KT 03/M01 A30 RMK A01 T00271014  RH  074%=      5-min Rain = 0
KAM1 190637Z 17005KT 03/M02 A30 RMK A01 T00261016  RH  074%=      5-min Rain = 0
KAM1 190638Z 17006KT 03/M02 A30 RMK A01 T00261016  RH  074%=      5-min Rain = 0
KAM1 190639Z 17006KT 03/M02 A30 RMK A01 T00251016  RH  074%=      5-min Rain = 0
KAM1 190640Z 18006KT 02/M02 A30 RMK A01 T00241016  RH  075%=      5-min Rain = 0
KAM1 190641Z 17006KT 02/M02 A30 RMK A01 T00241015  RH  076%=      5-min Rain = 0
KAM1 190642Z 17006KT 02/M01 A30 RMK A01 T00241014  RH  076%=      5-min Rain = 0
KAM1 190643Z 17006KT 02/M01 A30 RMK A01 T00241014  RH  076%=      5-min Rain = 0
KAM1 190644Z 17006KT 03/M01 A30 RMK A01 T00261013  RH  075%=      5-min Rain = 0
KAM1 190645Z 17006KT 03/M01 A30 RMK A01 T00271014  RH  075%=      5-min Rain = 0
KAM1 190646Z 17006KT 03/M01 A30 RMK A01 T00281014  RH  074%=      5-min Rain = 0
KAM1 190647Z 17006KT 03/M01 A30 RMK A01 T00291014  RH  073%=      5-min Rain = 0
KAM1 190648Z 16006KT 03/M01 A30 RMK A01 T00321013  RH  072%=      5-min Rain = 0
KAM1 190649Z 16006KT 03/M01 A30 RMK A01 T00341012  RH  071%=      5-min Rain = 0
KAM1 190650Z 16005KT 04/M01 A30 RMK A01 T00361012  RH  071%=      5-min Rain = 0
KAM1 190651Z 16004KT 04/M01 A30 RMK A01 T00371012  RH  070%=      5-min Rain = 0
KAM1 190652Z 17004KT 04/M01 A30 RMK A01 T00391012  RH  070%=      5-min Rain = 0
KAM1 190653Z 17003KT 04/M01 A30 RMK A01 T00391012  RH  069%=      5-min Rain = 0
KAM1 190654Z 19003KT 04/M01 A30 RMK A01 T00401012  RH  069%=      5-min Rain = 0
KAM1 190655Z 20003KT 04/M01 A3001 RMK A01 T00421010  RH  069%=      5-min Rain = 0
KAM1 190656Z 21004KT 04/M01 A3001 RMK A01 T00441010  RH  068%=      5-min Rain = 0
KAM1 190657Z 23004KT 05/M01 A3001 RMK A01 T00471008  RH  067%=      5-min Rain = 0
KAM1 190658Z 24004KT 05/M01 A3001 RMK A01 T00491008  RH  066%=      5-min Rain = 0
KAM1 190659Z 26003KT 05/M01 A3001 RMK A01 T00491013  RH  064%=      5-min Rain = 0
KAM1 190700Z 26003KT 04/M02 A3001 RMK A01 T00411021  RH  064%=      5-min Rain = 0
KAM1 190701Z 26003KT 03/M02 A3001 RMK A01 T00341022  RH  067%=      5-min Rain = 0
KAM1 190702Z 26003KT 03/M02 A3001 RMK A01 T00291022  RH  069%=      5-min Rain = 0
KAM1 190703Z 26003KT 03/M02 A3001 RMK A01 T00261020  RH  072%=      5-min Rain = 0
KAM1 190704Z 26004KT 02/M02 A3001 RMK A01 T00231020  RH  073%=      5-min Rain = 0
KAM1 190705Z 26004KT 02/M02 A3001 RMK A01 T00221019  RH  074%=      5-min Rain = 0
KAM1 190706Z 27003KT 02/M02 A3001 RMK A01 T00211019  RH  075%=      5-min Rain = 0
KAM1 190707Z 28003KT 02/M02 A3001 RMK A01 T00201019  RH  076%=      5-min Rain = 0
KAM1 190708Z 29003KT 02/M02 A3001 RMK A01 T00191019  RH  076%=      5-min Rain = 0
KAM1 190709Z 29003KT 02/M02 A3001 RMK A01 T00191018  RH  076%=      5-min Rain = 0
KAM1 190710Z 27002KT 02/M02 A3001 RMK A01 T00191018  RH  077%=      5-min Rain = 0
KAM1 190711Z 25002KT 02/M02 A3001 RMK A01 T00191017  RH  077%=      5-min Rain = 0
KAM1 190712Z 25003KT 02/M02 A3001 RMK A01 T00191016  RH  078%=      5-min Rain = 0
KAM1 190713Z 24003KT 02/M02 A3001 RMK A01 T00201015  RH  078%=      5-min Rain = 0
KAM1 190714Z 24003KT 02/M01 A3001 RMK A01 T00211014  RH  078%=      5-min Rain = 0
KAM1 190715Z 24003KT 02/M01 A3001 RMK A01 T00211014  RH  078%=      5-min Rain = 0
KAM1 190716Z 24002KT 02/M01 A3001 RMK A01 T00211014  RH  077%=      5-min Rain = 0
KAM1 190717Z 25002KT 02/M01 A3001 RMK A01 T00221014  RH  077%=      5-min Rain = 0
KAM1 190718Z 24002KT 02/M01 A3001 RMK A01 T00221013  RH  077%=      5-min Rain = 0
KAM1 190719Z 24002KT 02/M01 A3001 RMK A01 T00231013  RH  077%=      5-min Rain = 0
KAM1 190720Z 24002KT 03/M01 A3001 RMK A01 T00251011  RH  077%=      5-min Rain = 0
KAM1 190721Z 24002KT 03/M01 A3001 RMK A01 T00271010  RH  077%=      5-min Rain = 0
KAM1 190722Z 24002KT 03/M01 A3001 RMK A01 T00281010  RH  076%=      5-min Rain = 0
KAM1 190723Z 24002KT 03/M01 A3001 RMK A01 T00281012  RH  075%=      5-min Rain = 0
KAM1 190724Z 24001KT 03/M01 A3001 RMK A01 T00271013  RH  075%=      5-min Rain = 0
KAM1 190725Z 24001KT 03/M01 A3001 RMK A01 T00271013  RH  075%=      5-min Rain = 0
KAM1 190726Z 23001KT 03/M01 A3001 RMK A01 T00261013  RH  076%=      5-min Rain = 0
KAM1 190727Z 23002KT 03/M01 A3001 RMK A01 T00261012  RH  076%=      5-min Rain = 0
KAM1 190728Z 22002KT 03/M01 A3001 RMK A01 T00261012  RH  076%=      5-min Rain = 0
KAM1 190729Z 21002KT 03/M01 A3001 RMK A01 T00271011  RH  076%=      5-min Rain = 0
KAM1 190730Z 21003KT 03/M01 A3001 RMK A01 T00291010  RH  076%=      5-min Rain = 0
KAM1 190731Z 21003KT 03/M01 A3001 RMK A01 T00301008  RH  076%=      5-min Rain = 0
KAM1 190732Z 21003KT 03/M01 A30 RMK A01 T00321008  RH  075%=      5-min Rain = 0
KAM1 190733Z 21003KT 03/M01 A30 RMK A01 T00341008  RH  074%=      5-min Rain = 0
KAM1 190734Z 21003KT 03/M01 A30 RMK A01 T00341008  RH  074%=      5-min Rain = 0
KAM1 190735Z 21003KT 04/M01 A30 RMK A01 T00351008  RH  074%=      5-min Rain = 0
KAM1 190736Z 20003KT 04/M01 A30 RMK A01 T00361007  RH  073%=      5-min Rain = 0
KAM1 190737Z 20003KT 04/M01 A30 RMK A01 T00361007  RH  073%=      5-min Rain = 0
KAM1 190738Z 20003KT 04/M01 A30 RMK A01 T00371007  RH  073%=      5-min Rain = 0
KAM1 190739Z 20003KT 04/M01 A30 RMK A01 T00381006  RH  073%=      5-min Rain = 0
KAM1 190740Z 20003KT 04/M01 A30 RMK A01 T00401005  RH  073%=      5-min Rain = 0
KAM1 190741Z 19003KT 04/M00 A30 RMK A01 T00411004  RH  072%=      5-min Rain = 0
KAM1 190742Z 19002KT 04/M00 A30 RMK A01 T00421004  RH  072%=      5-min Rain = 0
KAM1 190743Z 20002KT 04/M00 A30 RMK A01 T00421003  RH  072%=      5-min Rain = 0
KAM1 190744Z 20002KT 04/M00 A30 RMK A01 T00431002  RH  072%=      5-min Rain = 0
KAM1 190745Z 20002KT 04/M00 A30 RMK A01 T00431003  RH  072%=      5-min Rain = 0
KAM1 190746Z 21003KT 04/M00 A30 RMK A01 T00441004  RH  071%=      5-min Rain = 0
KAM1 190747Z 21003KT 04/M01 A30 RMK A01 T00431005  RH  071%=      5-min Rain = 0
KAM1 190748Z 21003KT 04/M01 A30 RMK A01 T00421006  RH  071%=      5-min Rain = 0
KAM1 190749Z 21003KT 04/M01 A30 RMK A01 T00411008  RH  071%=      5-min Rain = 0
KAM1 190750Z 21003KT 04/M01 A30 RMK A01 T00391009  RH  071%=      5-min Rain = 0
KAM1 190751Z 21003KT 04/M01 A30 RMK A01 T00381010  RH  071%=      5-min Rain = 0
KAM1 190752Z 20003KT 04/M01 A30 RMK A01 T00371010  RH  071%=      5-min Rain = 0
KAM1 190753Z 20003KT 04/M01 A30 RMK A01 T00371010  RH  071%=      5-min Rain = 0
KAM1 190754Z 20003KT 04/M01 A3001 RMK A01 T00361011  RH  071%=      5-min Rain = 0
KAM1 190755Z 20003KT 04/M01 A3001 RMK A01 T00351012  RH  071%=      5-min Rain = 0
KAM1 190756Z 20003KT 03/M01 A3001 RMK A01 T00341013  RH  071%=      5-min Rain = 0
KAM1 190757Z 21003KT 03/M01 A3001 RMK A01 T00331013  RH  071%=      5-min Rain = 0
KAM1 190758Z 21003KT 03/M01 A30 RMK A01 T00331012  RH  072%=      5-min Rain = 0
KAM1 190759Z 21003KT 03/M01 A30 RMK A01 T00331011  RH  073%=      5-min Rain = 0
KAM1 190800Z 21003KT 03/M01 A30 RMK A01 T00341010  RH  073%=      5-min Rain = 0
KAM1 190801Z 21003KT 03/M01 A30 RMK A01 T00341011  RH  072%=      5-min Rain = 0
KAM1 190802Z 21003KT 03/M01 A30 RMK A01 T00321013  RH  072%=      5-min Rain = 0
KAM1 190803Z 21003KT 03/M01 A30 RMK A01 T00311013  RH  073%=      5-min Rain = 0
KAM1 190804Z 21003KT 03/M01 A30 RMK A01 T00301013  RH  074%=      5-min Rain = 0
KAM1 190805Z 21003KT 03/M01 A30 RMK A01 T00291012  RH  074%=      5-min Rain = 0
KAM1 190806Z 21003KT 03/M01 A30 RMK A01 T00301011  RH  075%=      5-min Rain = 0
KAM1 190807Z 21003KT 03/M01 A3001 RMK A01 T00301011  RH  075%=      5-min Rain = 0
KAM1 190808Z 22003KT 03/M01 A3001 RMK A01 T00321008  RH  075%=      5-min Rain = 0
KAM1 190809Z 22003KT 04/M01 A3001 RMK A01 T00371005  RH  074%=      5-min Rain = 0
KAM1 190810Z 22003KT 04/M00 A3001 RMK A01 T00401004  RH  073%=      5-min Rain = 0
KAM1 190811Z 22004KT 04/M00 A3001 RMK A01 T00441004  RH  071%=      5-min Rain = 0
KAM1 190812Z 22004KT 05/M00 A3001 RMK A01 T00471004  RH  070%=      5-min Rain = 0
KAM1 190813Z 22004KT 05/M01 A3001 RMK A01 T00491005  RH  068%=      5-min Rain = 0
KAM1 190814Z 22004KT 05/M01 A3001 RMK A01 T00501005  RH  067%=      5-min Rain = 0
KAM1 190815Z 23004KT 05/M01 A3001 RMK A01 T00501006  RH  067%=      5-min Rain = 0
KAM1 190816Z 23004KT 05/M01 A3001 RMK A01 T00501007  RH  066%=      5-min Rain = 0
KAM1 190817Z 24004KT 05/M01 A3001 RMK A01 T00481009  RH  067%=      5-min Rain = 0
KAM1 190818Z 24004KT 05/M01 A3001 RMK A01 T00471010  RH  067%=      5-min Rain = 0
KAM1 190819Z 23004KT 05/M01 A3001 RMK A01 T00451011  RH  067%=      5-min Rain = 0
KAM1 190820Z 23004KT 04/M01 A3001 RMK A01 T00421012  RH  067%=      5-min Rain = 0
KAM1 190821Z 23004KT 04/M01 A3001 RMK A01 T00391014  RH  068%=      5-min Rain = 0
KAM1 190822Z 24004KT 04/M01 A3001 RMK A01 T00371014  RH  069%=      5-min Rain = 0
KAM1 190823Z 24004KT 04/M01 A3001 RMK A01 T00351014  RH  070%=      5-min Rain = 0
KAM1 190824Z 24004KT 03/M01 A3001 RMK A01 T00341014  RH  071%=      5-min Rain = 0
KAM1 190825Z 24004KT 03/M01 A3001 RMK A01 T00321013  RH  072%=      5-min Rain = 0
KAM1 190826Z 25004KT 03/M01 A3001 RMK A01 T00321013  RH  073%=      5-min Rain = 0
KAM1 190827Z 25004KT 03/M01 A3001 RMK A01 T00311012  RH  073%=      5-min Rain = 0
KAM1 190828Z 25004KT 03/M01 A3001 RMK A01 T00301012  RH  074%=      5-min Rain = 0
KAM1 190829Z 25003KT 03/M01 A3001 RMK A01 T00301012  RH  074%=      5-min Rain = 0
KAM1 190830Z 25003KT 03/M01 A3001 RMK A01 T00301011  RH  074%=      5-min Rain = 0
KAM1 190831Z 26003KT 03/M01 A3001 RMK A01 T00301011  RH  074%=      5-min Rain = 0
KAM1 190832Z 26003KT 03/M01 A3001 RMK A01 T00301010  RH  075%=      5-min Rain = 0
KAM1 190833Z 25004KT 03/M01 A3001 RMK A01 T00311010  RH  074%=      5-min Rain = 0
KAM1 190834Z 25004KT 03/M01 A3001 RMK A01 T00311010  RH  074%=      5-min Rain = 0
KAM1 190835Z 25004KT 03/M01 A3001 RMK A01 T00321010  RH  074%=      5-min Rain = 0
KAM1 190836Z 25004KT 03/M01 A3001 RMK A01 T00321011  RH  073%=      5-min Rain = 0
KAM1 190837Z 24004KT 03/M01 A3001 RMK A01 T00321012  RH  073%=      5-min Rain = 0
KAM1 190838Z 25005KT 03/M01 A3001 RMK A01 T00311013  RH  073%=      5-min Rain = 0
KAM1 190839Z 25005KT 03/M01 A3001 RMK A01 T00291014  RH  073%=      5-min Rain = 0
KAM1 190840Z 25005KT 03/M01 A3001 RMK A01 T00281014  RH  074%=      5-min Rain = 0
KAM1 190841Z 25005KT 03/M01 A3001 RMK A01 T00281014  RH  074%=      5-min Rain = 0
KAM1 190842Z 25006KT 03/M01 A3001 RMK A01 T00271014  RH  074%=      5-min Rain = 0
KAM1 190843Z 25006KT 03/M02 A3001 RMK A01 T00251015  RH  075%=      5-min Rain = 0
KAM1 190844Z 24006KT 03/M01 A3001 RMK A01 T00251014  RH  076%=      5-min Rain = 0
KAM1 190845Z 24005KT 03/M01 A3001 RMK A01 T00251014  RH  076%=      5-min Rain = 0
KAM1 190846Z 25005KT 02/M01 A3001 RMK A01 T00241014  RH  076%=      5-min Rain = 0
KAM1 190847Z 25005KT 02/M02 A3001 RMK A01 T00231015  RH  076%=      5-min Rain = 0
KAM1 190848Z 25005KT 02/M02 A3001 RMK A01 T00221016  RH  076%=      5-min Rain = 0
KAM1 190849Z 25005KT 02/M02 A3001 RMK A01 T00211016  RH  077%=      5-min Rain = 0
KAM1 190850Z 24005KT 02/M02 A3001 RMK A01 T00201016  RH  077%=      5-min Rain = 0
KAM1 190851Z 24005KT 02/M02 A3001 RMK A01 T00191016  RH  077%=      5-min Rain = 0
KAM1 190852Z 24006KT 02/M02 A3001 RMK A01 T00181017  RH  078%=      5-min Rain = 0
KAM1 190853Z 24006KT 02/M02 A3001 RMK A01 T00171017  RH  078%=      5-min Rain = 0
KAM1 190854Z 24006KT 02/M02 A3001 RMK A01 T00171016  RH  079%=      5-min Rain = 0
KAM1 190855Z 24006KT 02/M02 A3001 RMK A01 T00171016  RH  079%=      5-min Rain = 0
KAM1 190856Z 24006KT 02/M02 A3001 RMK A01 T00171017  RH  078%=      5-min Rain = 0
KAM1 190857Z 24006KT 02/M02 A3001 RMK A01 T00161018  RH  078%=      5-min Rain = 0
KAM1 190858Z 24006KT 02/M02 A3001 RMK A01 T00161018  RH  078%=      5-min Rain = 0
KAM1 190859Z 24006KT 02/M02 A3001 RMK A01 T00151018  RH  078%=      5-min Rain = 0
KAM1 190900Z 24006KT 02/M02 A3001 RMK A01 T00151018  RH  079%=      5-min Rain = 0
KAM1 190901Z 23006KT 02/M02 A3001 RMK A01 T00151018  RH  078%=      5-min Rain = 0
KAM1 190902Z 23006KT 02/M02 A3001 RMK A01 T00151018  RH  079%=      5-min Rain = 0
KAM1 190903Z 23006KT 02/M02 A3001 RMK A01 T00161016  RH  079%=      5-min Rain = 0
KAM1 190904Z 23006KT 02/M02 A3001 RMK A01 T00181015  RH  079%=      5-min Rain = 0
KAM1 190905Z 23006KT 02/M02 A3001 RMK A01 T00201015  RH  078%=      5-min Rain = 0
KAM1 190906Z 23006KT 02/M02 A30 RMK A01 T00211015  RH  077%=      5-min Rain = 0
KAM1 190907Z 23005KT 02/M02 A30 RMK A01 T00221015  RH  077%=      5-min Rain = 0
KAM1 190908Z 22005KT 02/M02 A30 RMK A01 T00221015  RH  076%=      5-min Rain = 0
KAM1 190909Z 22005KT 02/M02 A30 RMK A01 T00231015  RH  076%=      5-min Rain = 0
KAM1 190910Z 22005KT 02/M01 A30 RMK A01 T00231014  RH  076%=      5-min Rain = 0
KAM1 190911Z 22005KT 02/M01 A30 RMK A01 T00241014  RH  076%=      5-min Rain = 0
KAM1 190912Z 22004KT 02/M02 A30 RMK A01 T00241015  RH  076%=      5-min Rain = 0
KAM1 190913Z 22004KT 02/M02 A30 RMK A01 T00241016  RH  075%=      5-min Rain = 0
KAM1 190914Z 22004KT 02/M02 A30 RMK A01 T00231017  RH  075%=      5-min Rain = 0
KAM1 190915Z 22003KT 02/M02 A30 RMK A01 T00221017  RH  075%=      5-min Rain = 0
KAM1 190916Z 22003KT 02/M02 A30 RMK A01 T00211018  RH  075%=      5-min Rain = 0
KAM1 190917Z 22003KT 02/M02 A30 RMK A01 T00201017  RH  076%=      5-min Rain = 0
KAM1 190918Z 22002KT 02/M02 A30 RMK A01 T00201017  RH  076%=      5-min Rain = 0
KAM1 190919Z 22002KT 02/M02 A30 RMK A01 T00201017  RH  076%=      5-min Rain = 0
KAM1 190920Z 22002KT 02/M02 A30 RMK A01 T00191017  RH  077%=      5-min Rain = 0
KAM1 190921Z 22002KT 02/M02 A30 RMK A01 T00201016  RH  077%=      5-min Rain = 0
KAM1 190922Z 22002KT 02/M02 A30 RMK A01 T00211015  RH  077%=      5-min Rain = 0
KAM1 190923Z 22002KT 02/M02 A30 RMK A01 T00221015  RH  077%=      5-min Rain = 0
KAM1 190924Z 22002KT 02/M01 A30 RMK A01 T00231014  RH  077%=      5-min Rain = 0
KAM1 190925Z 22002KT 02/M01 A30 RMK A01 T00241014  RH  076%=      5-min Rain = 0
KAM1 190926Z 22002KT 03/M01 A30 RMK A01 T00251013  RH  076%=      5-min Rain = 0
KAM1 190927Z 22002KT 03/M01 A30 RMK A01 T00271013  RH  075%=      5-min Rain = 0
KAM1 190928Z 22002KT 03/M01 A30 RMK A01 T00291013  RH  074%=      5-min Rain = 0
KAM1 190929Z 22003KT 03/M01 A30 RMK A01 T00301013  RH  073%=      5-min Rain = 0
KAM1 190930Z 22003KT 03/M01 A30 RMK A01 T00321013  RH  073%=      5-min Rain = 0
KAM1 190931Z 23003KT 03/M01 A30 RMK A01 T00321012  RH  072%=      5-min Rain = 0
KAM1 190932Z 23004KT 04/M01 A30 RMK A01 T00351011  RH  072%=      5-min Rain = 0
KAM1 190933Z 23004KT 04/M01 A30 RMK A01 T00391011  RH  070%=      5-min Rain = 0
KAM1 190934Z 22004KT 04/M01 A30 RMK A01 T00421011  RH  068%=      5-min Rain = 0
KAM1 190935Z 22005KT 04/M01 A30 RMK A01 T00431012  RH  067%=      5-min Rain = 0
KAM1 190936Z 22005KT 04/M01 A30 RMK A01 T00441014  RH  066%=      5-min Rain = 0
KAM1 190937Z 22005KT 04/M01 A30 RMK A01 T00441014  RH  066%=      5-min Rain = 0
KAM1 190938Z 22005KT 04/M01 A30 RMK A01 T00441014  RH  066%=      5-min Rain = 0
KAM1 190939Z 22005KT 04/M02 A30 RMK A01 T00431016  RH  066%=      5-min Rain = 0
KAM1 190940Z 22005KT 04/M02 A2999 RMK A01 T00441015  RH  066%=      5-min Rain = 0
KAM1 190941Z 22005KT 04/M02 A2999 RMK A01 T00441016  RH  065%=      5-min Rain = 0
KAM1 190942Z 22005KT 04/M02 A2999 RMK A01 T00421018  RH  065%=      5-min Rain = 0
KAM1 190943Z 22005KT 04/M02 A2999 RMK A01 T00391019  RH  065%=      5-min Rain = 0
KAM1 190944Z 22005KT 04/M02 A2999 RMK A01 T00381018  RH  067%=      5-min Rain = 0
KAM1 190945Z 22005KT 04/M02 A2999 RMK A01 T00391016  RH  067%=      5-min Rain = 0
KAM1 190946Z 22005KT 04/M02 A2999 RMK A01 T00401015  RH  067%=      5-min Rain = 0
KAM1 190947Z 21004KT 04/M02 A2999 RMK A01 T00411015  RH  067%=      5-min Rain = 0
KAM1 190948Z 21004KT 04/M02 A2999 RMK A01 T00401017  RH  066%=      5-min Rain = 0
KAM1 190949Z 22004KT 04/M02 A2999 RMK A01 T00381019  RH  066%=      5-min Rain = 0
KAM1 190950Z 21004KT 04/M02 A2999 RMK A01 T00371019  RH  067%=      5-min Rain = 0
KAM1 190951Z 21004KT 04/M02 A2999 RMK A01 T00361017  RH  068%=      5-min Rain = 0
KAM1 190952Z 21004KT 04/M02 A2999 RMK A01 T00361017  RH  068%=      5-min Rain = 0
KAM1 190953Z 21004KT 04/M02 A2999 RMK A01 T00361017  RH  068%=      5-min Rain = 0
KAM1 190954Z 21004KT 04/M02 A2999 RMK A01 T00361018  RH  068%=      5-min Rain = 0
KAM1 190955Z 20004KT 04/M02 A2999 RMK A01 T00351020  RH  067%=      5-min Rain = 0
KAM1 190956Z 20004KT 03/M02 A2999 RMK A01 T00341020  RH  068%=      5-min Rain = 0
KAM1 190957Z 20005KT 03/M02 A2999 RMK A01 T00341019  RH  068%=      5-min Rain = 0
KAM1 190958Z 20004KT 03/M02 A2999 RMK A01 T00341019  RH  068%=      5-min Rain = 0
KAM1 190959Z 20004KT 03/M02 A2999 RMK A01 T00341019  RH  068%=      5-min Rain = 0
KAM1 191000Z 20004KT 03/M02 A2999 RMK A01 T00321020  RH  068%=      5-min Rain = 0
KAM1 191001Z 20003KT 03/M02 A2999 RMK A01 T00311021  RH  069%=      5-min Rain = 0
KAM1 191002Z 21003KT 03/M02 A2999 RMK A01 T00301020  RH  069%=      5-min Rain = 0
KAM1 191003Z 20003KT 03/M02 A2998 RMK A01 T00301020  RH  070%=      5-min Rain = 0
KAM1 191004Z 20003KT 03/M02 A2998 RMK A01 T00291021  RH  069%=      5-min Rain = 0
KAM1 191005Z 21003KT 03/M02 A2998 RMK A01 T00281021  RH  070%=      5-min Rain = 0
KAM1 191006Z 21003KT 03/M02 A2998 RMK A01 T00281020  RH  071%=      5-min Rain = 0
KAM1 191007Z 21003KT 03/M02 A2998 RMK A01 T00281020  RH  071%=      5-min Rain = 0
KAM1 191008Z 21003KT 03/M02 A2998 RMK A01 T00281017  RH  072%=      5-min Rain = 0
KAM1 191009Z 21003KT 03/M02 A2998 RMK A01 T00291017  RH  072%=      5-min Rain = 0
KAM1 191010Z 21003KT 03/M02 A2998 RMK A01 T00301018  RH  071%=      5-min Rain = 0
KAM1 191011Z 20003KT 03/M02 A2998 RMK A01 T00301018  RH  071%=      5-min Rain = 0
KAM1 191012Z 20003KT 03/M02 A2998 RMK A01 T00301018  RH  070%=      5-min Rain = 0
KAM1 191013Z 21003KT 03/M02 A2998 RMK A01 T00301018  RH  071%=      5-min Rain = 0
KAM1 191014Z 21003KT 03/M02 A2998 RMK A01 T00311016  RH  071%=      5-min Rain = 0
KAM1 191015Z 21003KT 03/M02 A2998 RMK A01 T00321015  RH  071%=      5-min Rain = 0
KAM1 191016Z 21003KT 03/M01 A2998 RMK A01 T00331014  RH  072%=      5-min Rain = 0
KAM1 191017Z 21003KT 03/M01 A2998 RMK A01 T00331014  RH  071%=      5-min Rain = 0
KAM1 191018Z 21004KT 03/M01 A2998 RMK A01 T00341014  RH  071%=      5-min Rain = 0
KAM1 191019Z 21004KT 03/M02 A2998 RMK A01 T00341015  RH  071%=      5-min Rain = 0
KAM1 191020Z 21004KT 03/M02 A2998 RMK A01 T00341015  RH  070%=      5-min Rain = 0
KAM1 191021Z 21004KT 03/M02 A2998 RMK A01 T00331016  RH  070%=      5-min Rain = 0
KAM1 191022Z 21004KT 03/M02 A2998 RMK A01 T00321017  RH  070%=      5-min Rain = 0
KAM1 191023Z 21004KT 03/M02 A2998 RMK A01 T00311017  RH  071%=      5-min Rain = 0
KAM1 191024Z 21004KT 03/M02 A2998 RMK A01 T00301018  RH  071%=      5-min Rain = 0
KAM1 191025Z 21004KT 03/M02 A2998 RMK A01 T00301018  RH  071%=      5-min Rain = 0
KAM1 191026Z 21005KT 03/M02 A2998 RMK A01 T00291019  RH  071%=      5-min Rain = 0
KAM1 191027Z 21005KT 03/M02 A2998 RMK A01 T00291019  RH  070%=      5-min Rain = 0
KAM1 191028Z 21005KT 03/M02 A2998 RMK A01 T00291019  RH  070%=      5-min Rain = 0
KAM1 191029Z 21005KT 03/M02 A2998 RMK A01 T00291019  RH  070%=      5-min Rain = 0
KAM1 191030Z 21005KT 03/M02 A2998 RMK A01 T00291020  RH  070%=      5-min Rain = 0
KAM1 191031Z 20005KT 03/M02 A2998 RMK A01 T00291020  RH  070%=      5-min Rain = 0
KAM1 191032Z 20005KT 03/M02 A2998 RMK A01 T00281021  RH  070%=      5-min Rain = 0
KAM1 191033Z 20005KT 03/M02 A2998 RMK A01 T00271021  RH  070%=      5-min Rain = 0
KAM1 191034Z 20004KT 03/M02 A2998 RMK A01 T00271021  RH  071%=      5-min Rain = 0
KAM1 191035Z 20004KT 03/M02 A2998 RMK A01 T00261021  RH  071%=      5-min Rain = 0
KAM1 191036Z 20004KT 03/M02 A2998 RMK A01 T00251021  RH  071%=      5-min Rain = 0
KAM1 191037Z 20004KT 03/M02 A2998 RMK A01 T00251021  RH  072%=      5-min Rain = 0
KAM1 191038Z 20004KT 02/M02 A2998 RMK A01 T00241021  RH  072%=      5-min Rain = 0
KAM1 191039Z 21004KT 02/M02 A2998 RMK A01 T00241021  RH  072%=      5-min Rain = 0
KAM1 191040Z 21004KT 02/M02 A2998 RMK A01 T00241021  RH  072%=      5-min Rain = 0
KAM1 191041Z 21004KT 02/M02 A2998 RMK A01 T00231022  RH  072%=      5-min Rain = 0
KAM1 191042Z 21004KT 02/M02 A2998 RMK A01 T00231022  RH  072%=      5-min Rain = 0
KAM1 191043Z 21004KT 02/M02 A2998 RMK A01 T00221022  RH  072%=      5-min Rain = 0
KAM1 191044Z 21004KT 02/M02 A2998 RMK A01 T00211022  RH  073%=      5-min Rain = 0
KAM1 191045Z 21004KT 02/M02 A2998 RMK A01 T00211021  RH  073%=      5-min Rain = 0
KAM1 191046Z 20004KT 02/M02 A2998 RMK A01 T00211021  RH  073%=      5-min Rain = 0
KAM1 191047Z 20003KT 02/M02 A2998 RMK A01 T00221021  RH  074%=      5-min Rain = 0
KAM1 191048Z 20003KT 02/M02 A2998 RMK A01 T00221022  RH  073%=      5-min Rain = 0
KAM1 191049Z 19003KT 02/M03 A2998 RMK A01 T00221025  RH  071%=      5-min Rain = 0
KAM1 191050Z 19003KT 02/M03 A2998 RMK A01 T00201027  RH  071%=      5-min Rain = 0
KAM1 191051Z 19003KT 02/M03 A2998 RMK A01 T00201026  RH  072%=      5-min Rain = 0
KAM1 191052Z 19003KT 02/M03 A2998 RMK A01 T00191028  RH  071%=      5-min Rain = 0
KAM1 191053Z 19003KT 02/M03 A2998 RMK A01 T00181027  RH  072%=      5-min Rain = 0
KAM1 191054Z 19003KT 02/M02 A2998 RMK A01 T00191024  RH  074%=      5-min Rain = 0
KAM1 191055Z 19003KT 02/M02 A2998 RMK A01 T00221021  RH  073%=      5-min Rain = 0
KAM1 191056Z 18002KT 02/M02 A2998 RMK A01 T00241021  RH  072%=      5-min Rain = 0
KAM1 191057Z 17002KT 03/M02 A2998 RMK A01 T00251021  RH  072%=      5-min Rain = 0
KAM1 191058Z 16002KT 03/M02 A2998 RMK A01 T00251022  RH  071%=      5-min Rain = 0
KAM1 191059Z 16002KT 03/M02 A2998 RMK A01 T00251020  RH  072%=      5-min Rain = 0
KAM1 191100Z 16002KT 02/M02 A2998 RMK A01 T00241020  RH  073%=      5-min Rain = 0
KAM1 191101Z 17002KT 02/M02 A2998 RMK A01 T00231022  RH  072%=      5-min Rain = 0
KAM1 191102Z 17002KT 02/M02 A2998 RMK A01 T00211023  RH  072%=      5-min Rain = 0
KAM1 191103Z 17002KT 02/M02 A2998 RMK A01 T00201024  RH  073%=      5-min Rain = 0
KAM1 191104Z 17002KT 02/M02 A2998 RMK A01 T00191024  RH  073%=      5-min Rain = 0
KAM1 191105Z 17002KT 02/M02 A2998 RMK A01 T00181024  RH  074%=      5-min Rain = 0
KAM1 191106Z 17002KT 02/M03 A2998 RMK A01 T00171025  RH  074%=      5-min Rain = 0
KAM1 191107Z 17002KT 02/M03 A2998 RMK A01 T00161025  RH  074%=      5-min Rain = 0
KAM1 191108Z 17002KT 02/M03 A2998 RMK A01 T00151025  RH  074%=      5-min Rain = 0
KAM1 191109Z 17002KT 02/M02 A2998 RMK A01 T00151024  RH  075%=      5-min Rain = 0
KAM1 191110Z 17002KT 02/M02 A2998 RMK A01 T00151024  RH  076%=      5-min Rain = 0
KAM1 191111Z 17002KT 01/M02 A2998 RMK A01 T00141022  RH  077%=      5-min Rain = 0
KAM1 191112Z 18002KT 01/M02 A2998 RMK A01 T00141021  RH  078%=      5-min Rain = 0
KAM1 191113Z 18001KT 01/M02 A2998 RMK A01 T00131020  RH  078%=      5-min Rain = 0
KAM1 191114Z 18001KT 01/M02 A2998 RMK A01 T00131019  RH  079%=      5-min Rain = 0
KAM1 191115Z 18001KT 01/M02 A2997 RMK A01 T00131018  RH  080%=      5-min Rain = 0
KAM1 191116Z 18001KT 01/M02 A2997 RMK A01 T00131015  RH  081%=      5-min Rain = 0
KAM1 191117Z 18000KT 01/M02 A2997 RMK A01 T00141015  RH  081%=      5-min Rain = 0
KAM1 191118Z 18000KT 01/M02 A2997 RMK A01 T00131017  RH  080%=      5-min Rain = 0
KAM1 191119Z 00000KT 01/M02 A2997 RMK A01 T00111019  RH  080%=      5-min Rain = 0
KAM1 191120Z 00000KT 01/M02 A2997 RMK A01 T00101020  RH  081%=      5-min Rain = 0
KAM1 191121Z 00000KT 01/M02 A2997 RMK A01 T00081021  RH  081%=      5-min Rain = 0
KAM1 191122Z 17000KT 01/M02 A2997 RMK A01 T00071020  RH  083%=      5-min Rain = 0
KAM1 191123Z 17001KT 01/M02 A2997 RMK A01 T00061018  RH  084%=      5-min Rain = 0
KAM1 191124Z 17001KT 01/M02 A2997 RMK A01 T00061016  RH  086%=      5-min Rain = 0
KAM1 191125Z 17001KT 01/M01 A2997 RMK A01 T00061014  RH  087%=      5-min Rain = 0
KAM1 191126Z 17001KT 01/M01 A2997 RMK A01 T00071012  RH  087%=      5-min Rain = 0
KAM1 191127Z 17002KT 01/M01 A2997 RMK A01 T00071013  RH  087%=      5-min Rain = 0
KAM1 191128Z 18002KT 01/M01 A2997 RMK A01 T00081012  RH  086%=      5-min Rain = 0
KAM1 191129Z 18002KT 01/M01 A2997 RMK A01 T00091012  RH  086%=      5-min Rain = 0
KAM1 191130Z 17002KT 01/M01 A2997 RMK A01 T00101012  RH  085%=      5-min Rain = 0
KAM1 191131Z 17002KT 01/M01 A2997 RMK A01 T00111012  RH  085%=      5-min Rain = 0
KAM1 191132Z 17002KT 01/M01 A2997 RMK A01 T00131011  RH  084%=      5-min Rain = 0
KAM1 191133Z 17002KT 02/M01 A2997 RMK A01 T00151011  RH  083%=      5-min Rain = 0
KAM1 191134Z 17002KT 02/M01 A2997 RMK A01 T00161012  RH  082%=      5-min Rain = 0
KAM1 191135Z 16002KT 02/M01 A2997 RMK A01 T00161012  RH  081%=      5-min Rain = 0
KAM1 191136Z 16002KT 02/M01 A2997 RMK A01 T00171013  RH  081%=      5-min Rain = 0
KAM1 191137Z 16002KT 02/M01 A2997 RMK A01 T00181012  RH  080%=      5-min Rain = 0
KAM1 191138Z 16002KT 02/M01 A2997 RMK A01 T00181011  RH  081%=      5-min Rain = 0
KAM1 191139Z 16002KT 02/M01 A2997 RMK A01 T00201010  RH  081%=      5-min Rain = 0
KAM1 191140Z 16002KT 02/M01 A2997 RMK A01 T00211011  RH  080%=      5-min Rain = 0
KAM1 191141Z 17002KT 02/M01 A2997 RMK A01 T00211012  RH  079%=      5-min Rain = 0
KAM1 191142Z 18002KT 02/M01 A2997 RMK A01 T00201013  RH  079%=      5-min Rain = 0
KAM1 191143Z 19002KT 02/M01 A2997 RMK A01 T00191012  RH  080%=      5-min Rain = 0
KAM1 191144Z 19002KT 02/M01 A2997 RMK A01 T00191013  RH  080%=      5-min Rain = 0
KAM1 191145Z 19002KT 02/M01 A2997 RMK A01 T00181014  RH  080%=      5-min Rain = 0
KAM1 191146Z 19002KT 02/M01 A2997 RMK A01 T00171014  RH  080%=      5-min Rain = 0
KAM1 191147Z 19002KT 02/M02 A2997 RMK A01 T00161015  RH  080%=      5-min Rain = 0
KAM1 191148Z 19002KT 02/M02 A2997 RMK A01 T00151016  RH  080%=      5-min Rain = 0
KAM1 191149Z 19002KT 01/M02 A2997 RMK A01 T00131018  RH  080%=      5-min Rain = 0
KAM1 191150Z 19001KT 01/M02 A2997 RMK A01 T00121018  RH  080%=      5-min Rain = 0
KAM1 191151Z 19001KT 01/M02 A2997 RMK A01 T00111018  RH  081%=      5-min Rain = 0
KAM1 191152Z 19001KT 01/M02 A2997 RMK A01 T00101018  RH  082%=      5-min Rain = 0
KAM1 191153Z 19001KT 01/M02 A2997 RMK A01 T00091018  RH  082%=      5-min Rain = 0
KAM1 191154Z 19002KT 01/M02 A2997 RMK A01 T00091017  RH  083%=      5-min Rain = 0
KAM1 191155Z 19002KT 01/M02 A2997 RMK A01 T00091017  RH  083%=      5-min Rain = 0
KAM1 191156Z 19002KT 01/M02 A2997 RMK A01 T00091017  RH  083%=      5-min Rain = 0
KAM1 191157Z 19002KT 01/M02 A2997 RMK A01 T00091015  RH  084%=      5-min Rain = 0
KAM1 191158Z 19002KT 01/M01 A2997 RMK A01 T00111013  RH  084%=      5-min Rain = 0
KAM1 191159Z 20003KT 01/M01 A2996 RMK A01 T00121011  RH  084%=      5-min Rain = 0
KAM1 191200Z 20003KT 01/M01 A2996 RMK A01 T00141011  RH  084%=      5-min Rain = 0
KAM1 191201Z 20004KT 02/M01 A2996 RMK A01 T00151011  RH  083%=      5-min Rain = 0
KAM1 191202Z 19004KT 02/M01 A2996 RMK A01 T00161012  RH  082%=      5-min Rain = 0
KAM1 191203Z 19004KT 02/M01 A2996 RMK A01 T00171012  RH  081%=      5-min Rain = 0
KAM1 191204Z 19004KT 02/M01 A2996 RMK A01 T00171013  RH  081%=      5-min Rain = 0
KAM1 191205Z 19004KT 02/M01 A2996 RMK A01 T00161014  RH  081%=      5-min Rain = 0
KAM1 191206Z 19004KT 02/M01 A2996 RMK A01 T00151014  RH  081%=      5-min Rain = 0
KAM1 191207Z 19004KT 02/M01 A2996 RMK A01 T00151014  RH  081%=      5-min Rain = 0
KAM1 191208Z 19004KT 01/M01 A2996 RMK A01 T00141013  RH  082%=      5-min Rain = 0
KAM1 191209Z 20004KT 01/M01 A2996 RMK A01 T00141012  RH  083%=      5-min Rain = 0
KAM1 191210Z 20004KT 01/M01 A2996 RMK A01 T00141012  RH  083%=      5-min Rain = 0
KAM1 191211Z 20005KT 01/M01 A2996 RMK A01 T00141011  RH  083%=      5-min Rain = 0
KAM1 191212Z 20005KT 02/M01 A2996 RMK A01 T00151011  RH  083%=      5-min Rain = 0
KAM1 191213Z 20005KT 02/M01 A2996 RMK A01 T00161011  RH  082%=      5-min Rain = 0
KAM1 191214Z 20005KT 02/M01 A2996 RMK A01 T00161012  RH  082%=      5-min Rain = 0
KAM1 191215Z 20005KT 02/M01 A2996 RMK A01 T00171013  RH  081%=      5-min Rain = 0
KAM1 191216Z 20004KT 02/M02 A2996 RMK A01 T00161015  RH  080%=      5-min Rain = 0
KAM1 191217Z 20004KT 01/M02 A2996 RMK A01 T00141017  RH  080%=      5-min Rain = 0
KAM1 191218Z 20004KT 01/M02 A2996 RMK A01 T00121018  RH  080%=      5-min Rain = 0
KAM1 191219Z 20004KT 01/M02 A2996 RMK A01 T00111019  RH  080%=      5-min Rain = 0
KAM1 191220Z 20004KT 01/M02 A2996 RMK A01 T00101020  RH  081%=      5-min Rain = 0
KAM1 191221Z 20004KT 01/M02 A2996 RMK A01 T00091020  RH  081%=      5-min Rain = 0
KAM1 191222Z 20004KT 01/M02 A2996 RMK A01 T00081020  RH  082%=      5-min Rain = 0
KAM1 191223Z 20004KT 01/M02 A2996 RMK A01 T00071019  RH  082%=      5-min Rain = 0
KAM1 191224Z 20004KT 01/M02 A2996 RMK A01 T00071019  RH  083%=      5-min Rain = 0
KAM1 191225Z 20004KT 01/M02 A2996 RMK A01 T00071018  RH  083%=      5-min Rain = 0
KAM1 191226Z 20003KT 01/M02 A2996 RMK A01 T00071018  RH  083%=      5-min Rain = 0
KAM1 191227Z 20003KT 01/M02 A2996 RMK A01 T00071018  RH  083%=      5-min Rain = 0
KAM1 191228Z 20003KT 01/M02 A2996 RMK A01 T00081017  RH  083%=      5-min Rain = 0
KAM1 191229Z 20002KT 01/M02 A2996 RMK A01 T00111015  RH  083%=      5-min Rain = 0
KAM1 191230Z 20003KT 01/M02 A2996 RMK A01 T00141015  RH  081%=      5-min Rain = 0
KAM1 191231Z 20002KT 02/M02 A2996 RMK A01 T00151015  RH  080%=      5-min Rain = 0
KAM1 191232Z 20002KT 02/M02 A2996 RMK A01 T00161017  RH  079%=      5-min Rain = 0
KAM1 191233Z 20002KT 02/M02 A2996 RMK A01 T00161017  RH  079%=      5-min Rain = 0
KAM1 191234Z 19002KT 02/M02 A2996 RMK A01 T00161016  RH  079%=      5-min Rain = 0
KAM1 191235Z 19002KT 02/M02 A2996 RMK A01 T00171016  RH  079%=      5-min Rain = 0
KAM1 191236Z 18001KT 02/M02 A2996 RMK A01 T00191015  RH  078%=      5-min Rain = 0
KAM1 191237Z 16001KT 02/M01 A2996 RMK A01 T00221014  RH  077%=      5-min Rain = 0
KAM1 191238Z 15001KT 02/M01 A2996 RMK A01 T00231013  RH  077%=      5-min Rain = 0
KAM1 191239Z 15001KT 02/M01 A2996 RMK A01 T00241013  RH  077%=      5-min Rain = 0
KAM1 191240Z 15002KT 02/M02 A2996 RMK A01 T00231015  RH  076%=      5-min Rain = 0
KAM1 191241Z 16002KT 02/M02 A2996 RMK A01 T00211017  RH  076%=      5-min Rain = 0
KAM1 191242Z 16002KT 02/M02 A2996 RMK A01 T00201017  RH  077%=      5-min Rain = 0
KAM1 191243Z 17002KT 02/M02 A2996 RMK A01 T00201017  RH  077%=      5-min Rain = 0
KAM1 191244Z 17002KT 02/M02 A2996 RMK A01 T00201017  RH  077%=      5-min Rain = 0
KAM1 191245Z 18002KT 02/M02 A2996 RMK A01 T00201016  RH  077%=      5-min Rain = 0
KAM1 191246Z 19002KT 02/M02 A2996 RMK A01 T00211016  RH  077%=      5-min Rain = 0
KAM1 191247Z 19002KT 02/M02 A2996 RMK A01 T00211017  RH  076%=      5-min Rain = 0
KAM1 191248Z 20002KT 02/M02 A2996 RMK A01 T00211018  RH  075%=      5-min Rain = 0
KAM1 191249Z 20002KT 02/M02 A2996 RMK A01 T00201020  RH  075%=      5-min Rain = 0
KAM1 191250Z 21002KT 02/M02 A2996 RMK A01 T00191019  RH  076%=      5-min Rain = 0
KAM1 191251Z 21002KT 02/M02 A2996 RMK A01 T00181019  RH  076%=      5-min Rain = 0
KAM1 191252Z 21001KT 02/M02 A2996 RMK A01 T00171020  RH  077%=      5-min Rain = 0
KAM1 191253Z 21001KT 02/M02 A2996 RMK A01 T00161020  RH  077%=      5-min Rain = 0
KAM1 191254Z 21001KT 02/M02 A2996 RMK A01 T00151019  RH  078%=      5-min Rain = 0
KAM1 191255Z 21000KT 02/M02 A2996 RMK A01 T00151019  RH  078%=      5-min Rain = 0
KAM1 191256Z 00000KT 01/M02 A2996 RMK A01 T00141019  RH  079%=      5-min Rain = 0
KAM1 191257Z 00000KT 01/M02 A2996 RMK A01 T00131019  RH  079%=      5-min Rain = 0
KAM1 191258Z 00000KT 01/M02 A2996 RMK A01 T00121020  RH  079%=      5-min Rain = 0
KAM1 191259Z 00000KT 01/M02 A2996 RMK A01 T00101022  RH  079%=      5-min Rain = 0
KAM1 191300Z 00000KT 01/M02 A2996 RMK A01 T00081023  RH  080%=      5-min Rain = 0
KAM1 191301Z 00000KT 01/M02 A2997 RMK A01 T00061022  RH  081%=      5-min Rain = 0
KAM1 191302Z 00000KT 01/M02 A2997 RMK A01 T00051023  RH  082%=      5-min Rain = 0
KAM1 191303Z 00000KT 00/M02 A2996 RMK A01 T00041020  RH  084%=      5-min Rain = 0
KAM1 191304Z 00000KT 01/M02 A2996 RMK A01 T00051017  RH  085%=      5-min Rain = 0
KAM1 191305Z 00000KT 01/M02 A2996 RMK A01 T00061018  RH  084%=      5-min Rain = 0
KAM1 191306Z 00000KT 01/M02 A2996 RMK A01 T00061017  RH  084%=      5-min Rain = 0
KAM1 191307Z 00000KT 01/M02 A2996 RMK A01 T00071017  RH  084%=      5-min Rain = 0
KAM1 191308Z 00000KT 01/M02 A2996 RMK A01 T00071017  RH  084%=      5-min Rain = 0
KAM1 191309Z 21001KT 01/M02 A2996 RMK A01 T00071017  RH  084%=      5-min Rain = 0
KAM1 191310Z 21001KT 01/M02 A2996 RMK A01 T00071016  RH  085%=      5-min Rain = 0
KAM1 191311Z 21002KT 01/M02 A2996 RMK A01 T00081015  RH  085%=      5-min Rain = 0
KAM1 191312Z 21002KT 01/M02 A2996 RMK A01 T00091015  RH  084%=      5-min Rain = 0
KAM1 191313Z 21002KT 01/M02 A2996 RMK A01 T00091017  RH  083%=      5-min Rain = 0
KAM1 191314Z 21002KT 01/M02 A2996 RMK A01 T00091017  RH  083%=      5-min Rain = 0
KAM1 191315Z 22002KT 01/M02 A2996 RMK A01 T00091018  RH  082%=      5-min Rain = 0
KAM1 191316Z 22002KT 01/M02 A2997 RMK A01 T00081019  RH  082%=      5-min Rain = 0
KAM1 191317Z 22002KT 01/M02 A2997 RMK A01 T00081018  RH  083%=      5-min Rain = 0
KAM1 191318Z 23002KT 01/M02 A2997 RMK A01 T00071018  RH  083%=      5-min Rain = 0
KAM1 191319Z 24001KT 01/M02 A2997 RMK A01 T00071017  RH  084%=      5-min Rain = 0
KAM1 191320Z 25002KT 01/M02 A2997 RMK A01 T00081016  RH  084%=      5-min Rain = 0
KAM1 191321Z 26002KT 01/M02 A2997 RMK A01 T00091015  RH  084%=      5-min Rain = 0
KAM1 191322Z 26002KT 01/M02 A2997 RMK A01 T00101015  RH  084%=      5-min Rain = 0
KAM1 191323Z 26002KT 01/M02 A2997 RMK A01 T00111015  RH  083%=      5-min Rain = 0
KAM1 191324Z 26002KT 01/M02 A2997 RMK A01 T00121015  RH  083%=      5-min Rain = 0
KAM1 191325Z 26002KT 01/M02 A2996 RMK A01 T00121018  RH  081%=      5-min Rain = 0
KAM1 191326Z 25002KT 01/M02 A2996 RMK A01 T00111019  RH  080%=      5-min Rain = 0
KAM1 191327Z 25002KT 01/M02 A2996 RMK A01 T00101018  RH  081%=      5-min Rain = 0
KAM1 191328Z 25002KT 01/M02 A2996 RMK A01 T00101017  RH  082%=      5-min Rain = 0
KAM1 191329Z 25002KT 01/M02 A2996 RMK A01 T00111017  RH  082%=      5-min Rain = 0
KAM1 191330Z 24002KT 01/M02 A2996 RMK A01 T00101018  RH  081%=      5-min Rain = 0
KAM1 191331Z 24002KT 01/M02 A2996 RMK A01 T00101018  RH  081%=      5-min Rain = 0
KAM1 191332Z 24001KT 01/M02 A2996 RMK A01 T00101018  RH  081%=      5-min Rain = 0
KAM1 191333Z 24001KT 01/M02 A2996 RMK A01 T00101019  RH  081%=      5-min Rain = 0
KAM1 191334Z 24000KT 01/M02 A2996 RMK A01 T00091020  RH  081%=      5-min Rain = 0
KAM1 191335Z 24000KT 01/M02 A2996 RMK A01 T00091020  RH  081%=      5-min Rain = 0
KAM1 191336Z 00000KT 01/M02 A2996 RMK A01 T00091019  RH  082%=      5-min Rain = 0
KAM1 191337Z 00000KT 01/M02 A2996 RMK A01 T00091019  RH  082%=      5-min Rain = 0
KAM1 191338Z 00000KT 01/M02 A2996 RMK A01 T00101022  RH  080%=      5-min Rain = 0
KAM1 191339Z 00000KT 01/M02 A2996 RMK A01 T00091024  RH  079%=      5-min Rain = 0
KAM1 191340Z 00000KT 01/M02 A2996 RMK A01 T00081024  RH  079%=      5-min Rain = 0
KAM1 191341Z 00000KT 01/M02 A2996 RMK A01 T00071022  RH  081%=      5-min Rain = 0
KAM1 191342Z 00000KT 01/M02 A2996 RMK A01 T00081020  RH  082%=      5-min Rain = 0
KAM1 191343Z 00000KT 01/M02 A2996 RMK A01 T00091019  RH  081%=      5-min Rain = 0
KAM1 191344Z 00000KT 01/M02 A2996 RMK A01 T00101020  RH  080%=      5-min Rain = 0
KAM1 191345Z 19000KT 01/M02 A2996 RMK A01 T00131017  RH  081%=      5-min Rain = 0
KAM1 191346Z 16001KT 02/M02 A2996 RMK A01 T00171017  RH  078%=      5-min Rain = 0
KAM1 191347Z 16001KT 02/M02 A2996 RMK A01 T00201016  RH  077%=      5-min Rain = 0
KAM1 191348Z 16001KT 02/M02 A2996 RMK A01 T00241015  RH  076%=      5-min Rain = 0
KAM1 191349Z 15002KT 03/M02 A2996 RMK A01 T00271015  RH  074%=      5-min Rain = 0
KAM1 191350Z 14002KT 03/M02 A2996 RMK A01 T00291016  RH  072%=      5-min Rain = 0
KAM1 191351Z 14002KT 03/M02 A2996 RMK A01 T00291017  RH  071%=      5-min Rain = 0
KAM1 191352Z 14002KT 03/M02 A2996 RMK A01 T00281018  RH  072%=      5-min Rain = 0
KAM1 191353Z 13002KT 03/M02 A2996 RMK A01 T00251017  RH  074%=      5-min Rain = 0
KAM1 191354Z 13002KT 02/M02 A2996 RMK A01 T00241015  RH  075%=      5-min Rain = 0
KAM1 191355Z 12002KT 02/M01 A2996 RMK A01 T00241012  RH  077%=      5-min Rain = 0
KAM1 191356Z 12002KT 02/M01 A2996 RMK A01 T00231010  RH  079%=      5-min Rain = 0
KAM1 191357Z 12002KT 02/M01 A2996 RMK A01 T00231009  RH  080%=      5-min Rain = 0
KAM1 191358Z 12002KT 02/M01 A2996 RMK A01 T00231008  RH  080%=      5-min Rain = 0
KAM1 191359Z 13002KT 02/M01 A2996 RMK A01 T00231008  RH  080%=      5-min Rain = 0
KAM1 191400Z 13002KT 02/M01 A2996 RMK A01 T00231005  RH  082%=      5-min Rain = 0
KAM1 191401Z 13002KT 02/M00 A2996 RMK A01 T00231003  RH  083%=      5-min Rain = 0
KAM1 191402Z 13002KT 02/00 A2996 RMK A01 T00240000  RH  084%=      5-min Rain = 0
KAM1 191403Z 13003KT 03/00 A2996 RMK A01 T00250003  RH  085%=      5-min Rain = 0
KAM1 191404Z 13003KT 03/01 A2996 RMK A01 T00260006  RH  086%=      5-min Rain = 0
KAM1 191405Z 13003KT 03/01 A2996 RMK A01 T00270007  RH  087%=      5-min Rain = 0
KAM1 191406Z 12004KT 03/01 A2996 RMK A01 T00280008  RH  087%=      5-min Rain = 0
KAM1 191407Z 12004KT 03/01 A2996 RMK A01 T00280009  RH  087%=      5-min Rain = 0
KAM1 191408Z 12004KT 03/01 A2996 RMK A01 T00290008  RH  086%=      5-min Rain = 0
KAM1 191409Z 12004KT 03/01 A2996 RMK A01 T00300007  RH  085%=      5-min Rain = 0
KAM1 191410Z 12004KT 03/01 A2996 RMK A01 T00310006  RH  084%=      5-min Rain = 0
KAM1 191411Z 12005KT 03/01 A2996 RMK A01 T00320005  RH  082%=      5-min Rain = 0
KAM1 191412Z 13005KT 03/00 A2996 RMK A01 T00340004  RH  081%=      5-min Rain = 0
KAM1 191413Z 12005KT 04/00 A2996 RMK A01 T00350003  RH  080%=      5-min Rain = 0
KAM1 191414Z 13005KT 04/00 A2996 RMK A01 T00370003  RH  079%=      5-min Rain = 0
KAM1 191415Z 13004KT 04/00 A2996 RMK A01 T00380003  RH  078%=      5-min Rain = 0
KAM1 191416Z 13004KT 04/00 A2995 RMK A01 T00400003  RH  077%=      5-min Rain = 0
KAM1 191417Z 13004KT 04/00 A2995 RMK A01 T00420004  RH  076%=      5-min Rain = 0
KAM1 191418Z 13004KT 04/01 A2995 RMK A01 T00440005  RH  076%=      5-min Rain = 0
KAM1 191419Z 13003KT 05/01 A2995 RMK A01 T00450006  RH  075%=      5-min Rain = 0
KAM1 191420Z 13004KT 05/01 A2995 RMK A01 T00470006  RH  075%=      5-min Rain = 0
KAM1 191421Z 12003KT 05/01 A2995 RMK A01 T00480007  RH  075%=      5-min Rain = 0
KAM1 191422Z 12003KT 05/01 A2995 RMK A01 T00490007  RH  075%=      5-min Rain = 0
KAM1 191423Z 12003KT 05/01 A2995 RMK A01 T00510008  RH  074%=      5-min Rain = 0
KAM1 191424Z 12002KT 05/01 A2995 RMK A01 T00520008  RH  073%=      5-min Rain = 0
KAM1 191425Z 12002KT 05/01 A2995 RMK A01 T00540008  RH  072%=      5-min Rain = 0
KAM1 191426Z 12002KT 06/01 A2995 RMK A01 T00550008  RH  071%=      5-min Rain = 0
KAM1 191427Z 13002KT 06/01 A2996 RMK A01 T00570010  RH  071%=      5-min Rain = 0
KAM1 191428Z 14001KT 06/01 A2996 RMK A01 T00590010  RH  071%=      5-min Rain = 0
KAM1 191429Z 14001KT 06/01 A2996 RMK A01 T00620010  RH  069%=      5-min Rain = 0
KAM1 191430Z 15001KT 06/01 A2996 RMK A01 T00640010  RH  068%=      5-min Rain = 0
KAM1 191431Z 16001KT 07/01 A2995 RMK A01 T00660012  RH  068%=      5-min Rain = 0
KAM1 191432Z 17002KT 07/01 A2995 RMK A01 T00690014  RH  068%=      5-min Rain = 0
KAM1 191433Z 17002KT 07/01 A2995 RMK A01 T00710014  RH  067%=      5-min Rain = 0
KAM1 191434Z 16002KT 07/01 A2995 RMK A01 T00730011  RH  064%=      5-min Rain = 0
KAM1 191435Z 17002KT 08/01 A2995 RMK A01 T00750009  RH  063%=      5-min Rain = 0
KAM1 191436Z 17002KT 08/01 A2995 RMK A01 T00760007  RH  062%=      5-min Rain = 0
KAM1 191437Z 17003KT 08/01 A2995 RMK A01 T00770009  RH  062%=      5-min Rain = 0
KAM1 191438Z 16002KT 08/01 A2995 RMK A01 T00780007  RH  061%=      5-min Rain = 0
KAM1 191439Z 16002KT 08/01 A2995 RMK A01 T00780006  RH  060%=      5-min Rain = 0
KAM1 191440Z 17003KT 08/01 A2995 RMK A01 T00790008  RH  061%=      5-min Rain = 0
KAM1 191441Z 16003KT 08/01 A2995 RMK A01 T00810008  RH  060%=      5-min Rain = 0
KAM1 191442Z 16004KT 08/01 A2995 RMK A01 T00830008  RH  060%=      5-min Rain = 0
KAM1 191443Z 16003KT 08/01 A2995 RMK A01 T00840009  RH  059%=      5-min Rain = 0
KAM1 191444Z 15004KT 09/01 A2995 RMK A01 T00860011  RH  059%=      5-min Rain = 0
KAM1 191445Z 15005KT 09/01 A2995 RMK A01 T00880013  RH  059%=      5-min Rain = 0
KAM1 191446Z 15005KT 09/01 A2995 RMK A01 T00890011  RH  058%=      5-min Rain = 0
KAM1 191447Z 15007KT 09/01 A2995 RMK A01 T00920013  RH  058%=      5-min Rain = 0
KAM1 191448Z 16007KT 10/01 A2995 RMK A01 T00950012  RH  056%=      5-min Rain = 0
KAM1 191449Z 16007KT 10/01 A2995 RMK A01 T00980013  RH  056%=      5-min Rain = 0
KAM1 191450Z 16007KT 10/01 A2995 RMK A01 T01000013  RH  055%=      5-min Rain = 0
KAM1 191451Z 16007KT 10/01 A2995 RMK A01 T01010012  RH  054%=      5-min Rain = 0
KAM1 191452Z 17007KT 10/01 A2995 RMK A01 T01020010  RH  053%=      5-min Rain = 0
KAM1 191453Z 17007KT 10/01 A2995 RMK A01 T01020009  RH  052%=      5-min Rain = 0
KAM1 191454Z 17007KT 10/01 A2995 RMK A01 T01030011  RH  053%=      5-min Rain = 0
KAM1 191455Z 18007KT 10/01 A2995 RMK A01 T01040011  RH  053%=      5-min Rain = 0
KAM1 191456Z 18008KT 11/01 A2995 RMK A01 T01050009  RH  051%=      5-min Rain = 0
KAM1 191457Z 18006KT 11/01 A2995 RMK A01 T01050010  RH  052%=      5-min Rain = 0
KAM1 191458Z 18008KT 11/01 A2995 RMK A01 T01050010  RH  052%=      5-min Rain = 0
KAM1 191459Z 19008KT 11/01 A2996 RMK A01 T01050008  RH  051%=      5-min Rain = 0
KAM1 191500Z 19007KT 11/01 A2996 RMK A01 T01060011  RH  052%=      5-min Rain = 0
KAM1 191501Z 19008KT 11/01 A2996 RMK A01 T01070010  RH  051%=      5-min Rain = 0
KAM1 191502Z 19008KT 11/01 A2996 RMK A01 T01070009  RH  051%=      5-min Rain = 0
KAM1 191503Z 19008KT 11/01 A2996 RMK A01 T01070009  RH  051%=      5-min Rain = 0
KAM1 191504Z 20007KT 11/01 A2996 RMK A01 T01070010  RH  051%=      5-min Rain = 0
KAM1 191505Z 19008KT 11/01 A2996 RMK A01 T01080010  RH  051%=      5-min Rain = 0
KAM1 191506Z 20006KT 11/01 A2996 RMK A01 T01080010  RH  051%=      5-min Rain = 0
KAM1 191507Z 20008KT 11/01 A2996 RMK A01 T01080011  RH  051%=      5-min Rain = 0
KAM1 191508Z 19007KT 11/01 A2996 RMK A01 T01080011  RH  051%=      5-min Rain = 0
KAM1 191509Z 19008KT 11/01 A2996 RMK A01 T01090012  RH  051%=      5-min Rain = 0
KAM1 191510Z 19008KT 11/01 A2996 RMK A01 T01090012  RH  051%=      5-min Rain = 0
KAM1 191511Z 19007KT 11/01 A2996 RMK A01 T01090013  RH  051%=      5-min Rain = 0
KAM1 191512Z 19007KT 11/01 A2996 RMK A01 T01090013  RH  051%=      5-min Rain = 0
KAM1 191513Z 20006KT 11/01 A2996 RMK A01 T01100014  RH  051%=      5-min Rain = 0
KAM1 191514Z 20006KT 11/01 A2996 RMK A01 T01110014  RH  051%=      5-min Rain = 0
KAM1 191515Z 20005KT 11/02 A2996 RMK A01 T01120016  RH  052%=      5-min Rain = 0
KAM1 191516Z 20005KT 11/02 A2996 RMK A01 T01130017  RH  052%=      5-min Rain = 0
KAM1 191517Z 20006KT 11/02 A2996 RMK A01 T01140017  RH  051%=      5-min Rain = 0
KAM1 191518Z 20005KT 11/02 A2996 RMK A01 T01140015  RH  051%=      5-min Rain = 0
KAM1 191519Z 20006KT 12/02 A2996 RMK A01 T01150016  RH  051%=      5-min Rain = 0
KAM1 191520Z 19006KT 12/02 A2996 RMK A01 T01150016  RH  050%=      5-min Rain = 0
KAM1 191521Z 19006KT 12/02 A2996 RMK A01 T01170017  RH  050%=      5-min Rain = 0
KAM1 191522Z 19006KT 12/02 A2996 RMK A01 T01180018  RH  050%=      5-min Rain = 0
KAM1 191523Z 20006KT 12/02 A2996 RMK A01 T01200018  RH  050%=      5-min Rain = 0
KAM1 191524Z 20006KT 12/02 A2996 RMK A01 T01210019  RH  049%=      5-min Rain = 0
KAM1 191525Z 20007KT 12/02 A2996 RMK A01 T01240020  RH  049%=      5-min Rain = 0
KAM1 191526Z 20007KT 13/02 A2996 RMK A01 T01260020  RH  048%=      5-min Rain = 0
KAM1 191527Z 20006KT 13/02 A2996 RMK A01 T01270019  RH  048%=      5-min Rain = 0
KAM1 191528Z 20008KT 13/02 A2996 RMK A01 T01280020  RH  048%=      5-min Rain = 0
KAM1 191529Z 20007KT 13/02 A2996 RMK A01 T01300019  RH  047%=      5-min Rain = 0
KAM1 191530Z 20006KT 13/02 A2996 RMK A01 T01310019  RH  047%=      5-min Rain = 0
KAM1 191531Z 20006KT 13/02 A2996 RMK A01 T01330021  RH  047%=      5-min Rain = 0
KAM1 191532Z 19009KT 14/02 A2996 RMK A01 T01360022  RH  046%=      5-min Rain = 0
KAM1 191533Z 19009KT 14/02 A2996 RMK A01 T01380018  RH  044%=      5-min Rain = 0
KAM1 191534Z 19009KT 14/02 A2996 RMK A01 T01380019  RH  044%=      5-min Rain = 0
KAM1 191535Z 19009KT 14/02 A2996 RMK A01 T01390019  RH  044%=      5-min Rain = 0
KAM1 191536Z 18010KT 14/02 A2996 RMK A01 T01410019  RH  043%=      5-min Rain = 0
KAM1 191537Z 19009KT 14/02 A2996 RMK A01 T01420018  RH  043%=      5-min Rain = 0
KAM1 191538Z 19008KT 14/02 A2996 RMK A01 T01440019  RH  043%=      5-min Rain = 0
KAM1 191539Z 19010KT 15/02 A2996 RMK A01 T01460020  RH  042%=      5-min Rain = 0
KAM1 191540Z 18010KT 15/02 A2996 RMK A01 T01460017  RH  041%=      5-min Rain = 0
KAM1 191541Z 19009KT 15/02 A2996 RMK A01 T01470020  RH  042%=      5-min Rain = 0
KAM1 191542Z 18009KT 15/02 A2996 RMK A01 T01480019  RH  042%=      5-min Rain = 0
KAM1 191543Z 19010KT 15/02 A2996 RMK A01 T01490019  RH  041%=      5-min Rain = 0
KAM1 191544Z 19011KT 15/02 A2996 RMK A01 T01490016  RH  040%=      5-min Rain = 0
KAM1 191545Z 19010KT 15/02 A2996 RMK A01 T01490016  RH  040%=      5-min Rain = 0
KAM1 191546Z 19008KT 15/02 A2996 RMK A01 T01490017  RH  041%=      5-min Rain = 0
KAM1 191547Z 19011KT 15/02 A2996 RMK A01 T01490018  RH  041%=      5-min Rain = 0
KAM1 191548Z 19009KT 15/02 A2996 RMK A01 T01510018  RH  041%=      5-min Rain = 0
KAM1 191549Z 19010KT 15/02 A2996 RMK A01 T01510018  RH  041%=      5-min Rain = 0
KAM1 191550Z 19009KT 15/02 A2996 RMK A01 T01510017  RH  040%=      5-min Rain = 0
KAM1 191551Z 19009KT 15/02 A2996 RMK A01 T01500017  RH  040%=      5-min Rain = 0
KAM1 191552Z 18009KT 15/02 A2996 RMK A01 T01490017  RH  041%=      5-min Rain = 0
KAM1 191553Z 18009KT 15/02 A2996 RMK A01 T01490017  RH  041%=      5-min Rain = 0
KAM1 191554Z 18009KT 15/02 A2996 RMK A01 T01490018  RH  041%=      5-min Rain = 0
KAM1 191555Z 18009KT 15/02 A2996 RMK A01 T01490018  RH  041%=      5-min Rain = 0
KAM1 191556Z 19008KT 15/02 A2995 RMK A01 T01510020  RH  041%=      5-min Rain = 0
KAM1 191557Z 19008KT 15/02 A2995 RMK A01 T01520020  RH  041%=      5-min Rain = 0
KAM1 191558Z 18007KT 15/02 A2995 RMK A01 T01540020  RH  040%=      5-min Rain = 0
KAM1 191559Z 19007KT 16/02 A2995 RMK A01 T01560023  RH  041%=      5-min Rain = 0
KAM1 191600Z 19008KT 16/02 A2995 RMK A01 T01590023  RH  040%=      5-min Rain = 0
KAM1 191601Z 19008KT 16/02 A2995 RMK A01 T01600022  RH  039%=      5-min Rain = 0
KAM1 191602Z 18010KT 16/02 A2995 RMK A01 T01600021  RH  039%=      5-min Rain = 0
KAM1 191603Z 18008KT 16/02 A2995 RMK A01 T01600022  RH  039%=      5-min Rain = 0
KAM1 191604Z 17011KT 16/02 A2995 RMK A01 T01620023  RH  039%=      5-min Rain = 0
KAM1 191605Z 17013G18KT 16/02 A2995 RMK A01 T01640021  RH  038%=      5-min Rain = 0
KAM1 191606Z 17014KT 17/02 A2995 RMK A01 T01650018  RH  037%=      5-min Rain = 0
KAM1 191607Z 16010KT 17/02 A2995 RMK A01 T01650019  RH  037%=      5-min Rain = 0
KAM1 191608Z 17014KT 17/02 A2995 RMK A01 T01660019  RH  037%=      5-min Rain = 0
KAM1 191609Z 17012KT 17/02 A2995 RMK A01 T01660019  RH  037%=      5-min Rain = 0
KAM1 191610Z 18013KT 17/02 A2995 RMK A01 T01660019  RH  037%=      5-min Rain = 0
KAM1 191611Z 17014KT 17/02 A2995 RMK A01 T01670018  RH  037%=      5-min Rain = 0
KAM1 191612Z 18011KT 17/02 A2995 RMK A01 T01670019  RH  037%=      5-min Rain = 0
KAM1 191613Z 17011G16KT 17/02 A2995 RMK A01 T01670020  RH  037%=      5-min Rain = 0
KAM1 191614Z 17012KT 17/02 A2995 RMK A01 T01680018  RH  036%=      5-min Rain = 0
KAM1 191615Z 18012KT 17/02 A2995 RMK A01 T01680019  RH  037%=      5-min Rain = 0
KAM1 191616Z 18013KT 17/02 A2995 RMK A01 T01680018  RH  036%=      5-min Rain = 0
KAM1 191617Z 18013KT 17/02 A2995 RMK A01 T01680018  RH  036%=      5-min Rain = 0
KAM1 191618Z 18014KT 17/02 A2995 RMK A01 T01670016  RH  036%=      5-min Rain = 0
KAM1 191619Z 18016KT 17/02 A2995 RMK A01 T01670017  RH  036%=      5-min Rain = 0
KAM1 191620Z 18014KT 17/02 A2995 RMK A01 T01670016  RH  036%=      5-min Rain = 0
KAM1 191621Z 18012KT 17/02 A2995 RMK A01 T01670017  RH  036%=      5-min Rain = 0
KAM1 191622Z 18013KT 17/02 A2995 RMK A01 T01690019  RH  036%=      5-min Rain = 0
KAM1 191623Z 18013KT 17/02 A2995 RMK A01 T01700019  RH  036%=      5-min Rain = 0
KAM1 191624Z 18015KT 17/02 A2995 RMK A01 T01710018  RH  036%=      5-min Rain = 0
KAM1 191625Z 18014KT 17/02 A2995 RMK A01 T01710017  RH  036%=      5-min Rain = 0
KAM1 191626Z 18014KT 17/02 A2995 RMK A01 T01700016  RH  036%=      5-min Rain = 0
KAM1 191627Z 17012KT 17/02 A2995 RMK A01 T01690016  RH  036%=      5-min Rain = 0
KAM1 191628Z 18014KT 17/02 A2995 RMK A01 T01700018  RH  036%=      5-min Rain = 0
KAM1 191629Z 18014KT 17/02 A2994 RMK A01 T01700017  RH  035%=      5-min Rain = 0
KAM1 191630Z 17016KT 17/02 A2994 RMK A01 T01700017  RH  035%=      5-min Rain = 0
KAM1 191631Z 18011G16KT 17/02 A2994 RMK A01 T01700016  RH  035%=      5-min Rain = 0
KAM1 191632Z 19012KT 17/02 A2994 RMK A01 T01700018  RH  036%=      5-min Rain = 0
KAM1 191633Z 17011KT 17/02 A2994 RMK A01 T01710018  RH  036%=      5-min Rain = 0
KAM1 191634Z 18014KT 17/02 A2994 RMK A01 T01730019  RH  036%=      5-min Rain = 0
KAM1 191635Z 17012KT 17/02 A2994 RMK A01 T01740018  RH  035%=      5-min Rain = 0
KAM1 191636Z 18011KT 18/02 A2994 RMK A01 T01760019  RH  035%=      5-min Rain = 0
KAM1 191637Z 18012KT 18/02 A2994 RMK A01 T01800022  RH  035%=      5-min Rain = 0
KAM1 191638Z 18015KT 18/02 A2994 RMK A01 T01810018  RH  033%=      5-min Rain = 0
KAM1 191639Z 17015KT 18/02 A2994 RMK A01 T01820018  RH  033%=      5-min Rain = 0
KAM1 191640Z 17014KT 18/02 A2994 RMK A01 T01810015  RH  033%=      5-min Rain = 0
KAM1 191641Z 17014KT 18/02 A2994 RMK A01 T01810018  RH  033%=      5-min Rain = 0
KAM1 191642Z 18015KT 18/02 A2994 RMK A01 T01830017  RH  033%=      5-min Rain = 0
KAM1 191643Z 18016KT 18/02 A2994 RMK A01 T01820015  RH  033%=      5-min Rain = 0
KAM1 191644Z 17015KT 18/02 A2994 RMK A01 T01810015  RH  033%=      5-min Rain = 0
KAM1 191645Z 17014KT 18/02 A2994 RMK A01 T01800016  RH  033%=      5-min Rain = 0
KAM1 191646Z 18015KT 18/02 A2994 RMK A01 T01810016  RH  033%=      5-min Rain = 0
KAM1 191647Z 18012KT 18/02 A2994 RMK A01 T01820017  RH  033%=      5-min Rain = 0
KAM1 191648Z 18014KT 18/02 A2994 RMK A01 T01840019  RH  033%=      5-min Rain = 0
KAM1 191649Z 19013KT 19/02 A2994 RMK A01 T01860018  RH  033%=      5-min Rain = 0
KAM1 191650Z 18015G20KT 19/02 A2993 RMK A01 T01860017  RH  032%=      5-min Rain = 0
KAM1 191651Z 18019KT 19/01 A2993 RMK A01 T01880014  RH  031%=      5-min Rain = 0
KAM1 191652Z 18016KT 19/01 A2993 RMK A01 T01880013  RH  031%=      5-min Rain = 0
KAM1 191653Z 18016KT 19/01 A2993 RMK A01 T01890013  RH  031%=      5-min Rain = 0
KAM1 191654Z 18016KT 19/01 A2993 RMK A01 T01900014  RH  031%=      5-min Rain = 0
KAM1 191655Z 18017KT 19/01 A2993 RMK A01 T01890012  RH  031%=      5-min Rain = 0
KAM1 191656Z 17017KT 19/01 A2993 RMK A01 T01880012  RH  031%=      5-min Rain = 0
KAM1 191657Z 17015G20KT 19/01 A2993 RMK A01 T01870014  RH  031%=      5-min Rain = 0
KAM1 191658Z 17016KT 19/01 A2993 RMK A01 T01880014  RH  031%=      5-min Rain = 0
KAM1 191659Z 18016KT 19/02 A2993 RMK A01 T01890015  RH  031%=      5-min Rain = 0
KAM1 191700Z 19016KT 19/01 A2993 RMK A01 T01900014  RH  031%=      5-min Rain = 0
KAM1 191701Z 19013KT 19/02 A2993 RMK A01 T01920015  RH  031%=      5-min Rain = 0
KAM1 191702Z 18014G19KT 19/02 A2993 RMK A01 T01940016  RH  031%=      5-min Rain = 0
KAM1 191703Z 18014KT 20/02 A2993 RMK A01 T01950016  RH  030%=      5-min Rain = 0
KAM1 191704Z 18017G23KT 20/01 A2993 RMK A01 T01950014  RH  030%=      5-min Rain = 0
KAM1 191705Z 18014KT 19/01 A2993 RMK A01 T01940014  RH  030%=      5-min Rain = 0
KAM1 191706Z 19015G20KT 19/02 A2993 RMK A01 T01940016  RH  030%=      5-min Rain = 0
KAM1 191707Z 18014KT 20/01 A2993 RMK A01 T01950013  RH  030%=      5-min Rain = 0
KAM1 191708Z 19013KT 20/02 A2993 RMK A01 T01950015  RH  030%=      5-min Rain = 0
KAM1 191709Z 19015KT 20/02 A2993 RMK A01 T01970015  RH  030%=      5-min Rain = 0
KAM1 191710Z 19017KT 20/01 A2993 RMK A01 T01980012  RH  029%=      5-min Rain = 0
KAM1 191711Z 19016KT 20/01 A2993 RMK A01 T01980012  RH  029%=      5-min Rain = 0
KAM1 191712Z 18015G21KT 20/01 A2993 RMK A01 T01980012  RH  029%=      5-min Rain = 0
KAM1 191713Z 19017KT 20/01 A2993 RMK A01 T01990011  RH  028%=      5-min Rain = 0
KAM1 191714Z 18016KT 20/01 A2993 RMK A01 T01990011  RH  028%=      5-min Rain = 0
KAM1 191715Z 18018KT 20/01 A2992 RMK A01 T02000011  RH  028%=      5-min Rain = 0
KAM1 191716Z 19019KT 20/01 A2992 RMK A01 T02010009  RH  028%=      5-min Rain = 0
KAM1 191717Z 19016KT 20/01 A2992 RMK A01 T02010009  RH  028%=      5-min Rain = 0
KAM1 191718Z 18018KT 20/01 A2992 RMK A01 T02010009  RH  028%=      5-min Rain = 0
KAM1 191719Z 18018KT 20/01 A2992 RMK A01 T02020009  RH  028%=      5-min Rain = 0
KAM1 191720Z 19017KT 20/01 A2992 RMK A01 T02010009  RH  028%=      5-min Rain = 0
KAM1 191721Z 18015KT 20/01 A2992 RMK A01 T02020011  RH  028%=      5-min Rain = 0
KAM1 191722Z 18017KT 20/01 A2992 RMK A01 T02040012  RH  028%=      5-min Rain = 0
KAM1 191723Z 19016KT 21/01 A2992 RMK A01 T02050011  RH  028%=      5-min Rain = 0
KAM1 191724Z 18016G21KT 21/01 A2992 RMK A01 T02060010  RH  027%=      5-min Rain = 0
KAM1 191725Z 18016KT 21/01 A2992 RMK A01 T02070010  RH  027%=      5-min Rain = 0
KAM1 191726Z 18017G22KT 21/01 A2992 RMK A01 T02070009  RH  027%=      5-min Rain = 0
KAM1 191727Z 19018KT 21/01 A2992 RMK A01 T02070008  RH  027%=      5-min Rain = 0
KAM1 191728Z 18015KT 21/01 A2992 RMK A01 T02070007  RH  026%=      5-min Rain = 0
KAM1 191729Z 18016KT 21/01 A2991 RMK A01 T02070009  RH  027%=      5-min Rain = 0
KAM1 191730Z 18018KT 21/01 A2991 RMK A01 T02100008  RH  026%=      5-min Rain = 0
KAM1 191731Z 19015G20KT 21/01 A2991 RMK A01 T02110006  RH  026%=      5-min Rain = 0
KAM1 191732Z 19013G18KT 21/01 A2991 RMK A01 T02120008  RH  026%=      5-min Rain = 0
KAM1 191733Z 19018KT 21/01 A2991 RMK A01 T02140006  RH  025%=      5-min Rain = 0
KAM1 191734Z 19017KT 21/00 A2991 RMK A01 T02140003  RH  024%=      5-min Rain = 0
KAM1 191735Z 18017KT 21/00 A2991 RMK A01 T02130003  RH  025%=      5-min Rain = 0
KAM1 191736Z 19015G21KT 21/01 A2991 RMK A01 T02130005  RH  025%=      5-min Rain = 0
KAM1 191737Z 19017KT 21/00 A2991 RMK A01 T02140003  RH  024%=      5-min Rain = 0
KAM1 191738Z 19016KT 21/00 A2991 RMK A01 T02140004  RH  025%=      5-min Rain = 0
KAM1 191739Z 19017G23KT 21/00 A2991 RMK A01 T02140004  RH  025%=      5-min Rain = 0
KAM1 191740Z 19020KT 21/00 A2991 RMK A01 T02140001  RH  024%=      5-min Rain = 0
KAM1 191741Z 20018KT 21/00 A2991 RMK A01 T02130002  RH  024%=      5-min Rain = 0
KAM1 191742Z 19018G23KT 21/00 A2991 RMK A01 T02130003  RH  025%=      5-min Rain = 0
KAM1 191743Z 20015G21KT 21/00 A2991 RMK A01 T02110002  RH  025%=      5-min Rain = 0
KAM1 191744Z 18015KT 21/00 A2991 RMK A01 T02100003  RH  025%=      5-min Rain = 0
KAM1 191745Z 18019KT 21/00 A2991 RMK A01 T02100004  RH  025%=      5-min Rain = 0
KAM1 191746Z 18018G23KT 21/00 A2991 RMK A01 T02100004  RH  025%=      5-min Rain = 0
KAM1 191747Z 19019KT 21/01 A299 RMK A01 T02100005  RH  025%=      5-min Rain = 0
KAM1 191748Z 18017KT 21/01 A299 RMK A01 T02110005  RH  025%=      5-min Rain = 0
KAM1 191749Z 18018G23KT 21/01 A299 RMK A01 T02120006  RH  025%=      5-min Rain = 0
KAM1 191750Z 18020KT 21/00 A299 RMK A01 T02130004  RH  025%=      5-min Rain = 0
KAM1 191751Z 18017KT 21/00 A299 RMK A01 T02120002  RH  025%=      5-min Rain = 0
KAM1 191752Z 19018KT 21/00 A299 RMK A01 T02100002  RH  025%=      5-min Rain = 0
KAM1 191753Z 19020KT 21/00 A299 RMK A01 T02100001  RH  025%=      5-min Rain = 0
KAM1 191754Z 19019KT 21/00 A299 RMK A01 T02100001  RH  025%=      5-min Rain = 0
KAM1 191755Z 19018G23KT 21/00 A299 RMK A01 T02100001  RH  025%=      5-min Rain = 0
KAM1 191756Z 20019KT 21/00 A299 RMK A01 T02110000  RH  024%=      5-min Rain = 0
KAM1 191757Z 19019KT 21/00 A299 RMK A01 T02120002  RH  025%=      5-min Rain = 0
KAM1 191758Z 19018KT 21/00 A299 RMK A01 T02130002  RH  024%=      5-min Rain = 0
KAM1 191759Z 19018KT 21/00 A299 RMK A01 T02130001  RH  024%=      5-min Rain = 0
KAM1 191800Z 20017KT 21/00 A299 RMK A01 T02130002  RH  024%=      5-min Rain = 0
KAM1 191801Z 20019G25KT 21/00 A299 RMK A01 T02130001  RH  024%=      5-min Rain = 0
KAM1 191802Z 20019G24KT 21/00 A299 RMK A01 T02130001  RH  024%=      5-min Rain = 0
KAM1 191803Z 19017G22KT 21/00 A299 RMK A01 T02130001  RH  024%=      5-min Rain = 0
KAM1 191804Z 20015G22KT 21/00 A299 RMK A01 T02130002  RH  024%=      5-min Rain = 0
KAM1 191805Z 19016KT 22/00 A2989 RMK A01 T02150003  RH  024%=      5-min Rain = 0
KAM1 191806Z 18015KT 22/01 A299 RMK A01 T02170006  RH  025%=      5-min Rain = 0
KAM1 191807Z 18020KT 22/00 A2989 RMK A01 T02180004  RH  024%=      5-min Rain = 0
KAM1 191808Z 20020KT 22/00 A2989 RMK A01 T02180002  RH  024%=      5-min Rain = 0
KAM1 191809Z 19018KT 22/00 A2989 RMK A01 T02180002  RH  024%=      5-min Rain = 0
KAM1 191810Z 19017KT 22/00 A2989 RMK A01 T02170004  RH  024%=      5-min Rain = 0
KAM1 191811Z 18017G22KT 22/00 A2989 RMK A01 T02180004  RH  024%=      5-min Rain = 0
KAM1 191812Z 18019KT 22/01 A2989 RMK A01 T02200006  RH  024%=      5-min Rain = 0
KAM1 191813Z 18015KT 22/00 A2989 RMK A01 T02210004  RH  024%=      5-min Rain = 0
KAM1 191814Z 18015KT 22/01 A2989 RMK A01 T02210007  RH  024%=      5-min Rain = 0
KAM1 191815Z 18015G21KT 22/01 A2989 RMK A01 T02220007  RH  024%=      5-min Rain = 0
KAM1 191816Z 19019KT 22/01 A2989 RMK A01 T02230006  RH  024%=      5-min Rain = 0
KAM1 191817Z 19019KT 22/00 A2989 RMK A01 T02210003  RH  023%=      5-min Rain = 0
KAM1 191818Z 19018KT 22/00 A2989 RMK A01 T02200001  RH  023%=      5-min Rain = 0
KAM1 191819Z 19015KT 22/00 A2989 RMK A01 T02190002  RH  024%=      5-min Rain = 0
KAM1 191820Z 19015G20KT 22/00 A2988 RMK A01 T02190004  RH  024%=      5-min Rain = 0
KAM1 191821Z 19016KT 22/01 A2988 RMK A01 T02210005  RH  024%=      5-min Rain = 0
KAM1 191822Z 19017KT 22/00 A2988 RMK A01 T02210003  RH  024%=      5-min Rain = 0
KAM1 191823Z 19016G21KT 22/00 A2988 RMK A01 T02190004  RH  024%=      5-min Rain = 0
KAM1 191824Z 19018G23KT 22/01 A2988 RMK A01 T02200005  RH  024%=      5-min Rain = 0
KAM1 191825Z 19017G24KT 22/01 A2988 RMK A01 T02210005  RH  024%=      5-min Rain = 0
KAM1 191826Z 19019G25KT 22/00 A2988 RMK A01 T02210004  RH  024%=      5-min Rain = 0
KAM1 191827Z 19021KT 22/00 A2988 RMK A01 T02210003  RH  023%=      5-min Rain = 0
KAM1 191828Z 19020KT 22/00 A2988 RMK A01 T02210001  RH  023%=      5-min Rain = 0
KAM1 191829Z 18018KT 22/00 A2988 RMK A01 T02210002  RH  023%=      5-min Rain = 0
KAM1 191830Z 18022KT 22/00 A2988 RMK A01 T02220003  RH  023%=      5-min Rain = 0
KAM1 191831Z 19019KT 22/00 A2988 RMK A01 T02220002  RH  023%=      5-min Rain = 0
KAM1 191832Z 19019KT 22/00 A2988 RMK A01 T02220002  RH  023%=      5-min Rain = 0
KAM1 191833Z 19020G25KT 22/00 A2988 RMK A01 T02230003  RH  023%=      5-min Rain = 0
KAM1 191834Z 19018G23KT 22/00 A2988 RMK A01 T02240003  RH  023%=      5-min Rain = 0
KAM1 191835Z 19019KT 22/00 A2988 RMK A01 T02240003  RH  023%=      5-min Rain = 0
KAM1 191836Z 18021KT 22/00 A2988 RMK A01 T02240001  RH  023%=      5-min Rain = 0
KAM1 191837Z 19018KT 22/00 A2987 RMK A01 T02240003  RH  023%=      5-min Rain = 0
KAM1 191838Z 19017KT 23/01 A2987 RMK A01 T02260006  RH  023%=      5-min Rain = 0
KAM1 191839Z 19016G23KT 23/01 A2987 RMK A01 T02280008  RH  023%=      5-min Rain = 0
KAM1 191840Z 20018KT 23/01 A2987 RMK A01 T02290006  RH  023%=      5-min Rain = 0
KAM1 191841Z 19017KT 23/00 A2987 RMK A01 T02280004  RH  023%=      5-min Rain = 0
KAM1 191842Z 18014G19KT 23/01 A2987 RMK A01 T02280006  RH  023%=      5-min Rain = 0
KAM1 191843Z 19018KT 23/01 A2987 RMK A01 T02300006  RH  023%=      5-min Rain = 0
KAM1 191844Z 19017G22KT 23/01 A2987 RMK A01 T02300005  RH  023%=      5-min Rain = 0
KAM1 191845Z 20020KT 23/00 A2987 RMK A01 T02310002  RH  022%=      5-min Rain = 0
KAM1 191846Z 20017G23KT 23/00 A2987 RMK A01 T02310000  RH  022%=      5-min Rain = 0
KAM1 191847Z 19018G25KT 23/00 A2987 RMK A01 T02310000  RH  022%=      5-min Rain = 0
KAM1 191848Z 19019KT 23/00 A2987 RMK A01 T023200-0  RH  022%=      5-min Rain = 0
KAM1 191849Z 19021KT 23/00 A2986 RMK A01 T02320000  RH  022%=      5-min Rain = 0
KAM1 191850Z 19016KT 23/00 A2987 RMK A01 T023300-0  RH  021%=      5-min Rain = 0
KAM1 191851Z 20014KT 24/00 A2986 RMK A01 T02350000  RH  021%=      5-min Rain = 0
KAM1 191852Z 20015G20KT 24/00 A2986 RMK A01 T02400002  RH  021%=      5-min Rain = 0
KAM1 191853Z 19020KT 24/00 A2986 RMK A01 T024300-0  RH  020%=      5-min Rain = 0
KAM1 191854Z 19019KT 24/M01 A2986 RMK A01 T02391006  RH  020%=      5-min Rain = 0
KAM1 191855Z 20016G23KT 24/M00 A2986 RMK A01 T02371004  RH  020%=      5-min Rain = 0
KAM1 191856Z 19019KT 24/M00 A2986 RMK A01 T02371004  RH  020%=      5-min Rain = 0
KAM1 191857Z 19021KT 24/M01 A2986 RMK A01 T02371005  RH  020%=      5-min Rain = 0
KAM1 191858Z 20019KT 24/M01 A2986 RMK A01 T02351007  RH  020%=      5-min Rain = 0
KAM1 191859Z 19021G26KT 23/M00 A2986 RMK A01 T02341004  RH  021%=      5-min Rain = 0
KAM1 191900Z 20022KT 23/M01 A2986 RMK A01 T02341005  RH  020%=      5-min Rain = 0
KAM1 191901Z 20019G24KT 23/M01 A2986 RMK A01 T02331005  RH  021%=      5-min Rain = 0
KAM1 191902Z 20018G24KT 23/M00 A2986 RMK A01 T02331002  RH  021%=      5-min Rain = 0
KAM1 191903Z 20019KT 23/M00 A2986 RMK A01 T02341001  RH  021%=      5-min Rain = 0
KAM1 191904Z 20019G24KT 23/M00 A2986 RMK A01 T02341001  RH  021%=      5-min Rain = 0
KAM1 191905Z 19019KT 23/M00 A2986 RMK A01 T02341001  RH  021%=      5-min Rain = 0
KAM1 191906Z 19017KT 23/M00 A2986 RMK A01 T02331001  RH  021%=      5-min Rain = 0
KAM1 191907Z 20019KT 23/00 A2986 RMK A01 T02320001  RH  022%=      5-min Rain = 0
KAM1 191908Z 20019KT 23/00 A2986 RMK A01 T02320001  RH  022%=      5-min Rain = 0
KAM1 191909Z 21019KT 23/00 A2986 RMK A01 T023100-0  RH  022%=      5-min Rain = 0
KAM1 191910Z 21018KT 23/M00 A2986 RMK A01 T02301001  RH  022%=      5-min Rain = 0
KAM1 191911Z 21018G24KT 23/M00 A2986 RMK A01 T02291002  RH  022%=      5-min Rain = 0
KAM1 191912Z 20019G26KT 23/M00 A2986 RMK A01 T02281003  RH  022%=      5-min Rain = 0
KAM1 191913Z 20021KT 23/M00 A2986 RMK A01 T02281004  RH  021%=      5-min Rain = 0
KAM1 191914Z 20018KT 23/M00 A2986 RMK A01 T02281004  RH  021%=      5-min Rain = 0
KAM1 191915Z 20017KT 23/M00 A2986 RMK A01 T02301002  RH  021%=      5-min Rain = 0
KAM1 191916Z 20021G26KT 23/M00 A2986 RMK A01 T02331001  RH  021%=      5-min Rain = 0
KAM1 191917Z 20018G23KT 23/M00 A2985 RMK A01 T02341004  RH  021%=      5-min Rain = 0
KAM1 191918Z 20018G23KT 24/M00 A2986 RMK A01 T02361001  RH  021%=      5-min Rain = 0
KAM1 191919Z 21020KT 24/M00 A2985 RMK A01 T02391001  RH  021%=      5-min Rain = 0
KAM1 191920Z 20019KT 24/M00 A2985 RMK A01 T02381003  RH  020%=      5-min Rain = 0
KAM1 191921Z 19019KT 24/M00 A2985 RMK A01 T02381001  RH  021%=      5-min Rain = 0
KAM1 191922Z 19018KT 24/M00 A2985 RMK A01 T02381003  RH  020%=      5-min Rain = 0
KAM1 191923Z 19019KT 24/00 A2985 RMK A01 T023800-0  RH  021%=      5-min Rain = 0
KAM1 191924Z 19018KT 24/M00 A2985 RMK A01 T02391003  RH  020%=      5-min Rain = 0
KAM1 191925Z 19019KT 24/M00 A2985 RMK A01 T02391003  RH  020%=      5-min Rain = 0
KAM1 191926Z 21017KT 24/M00 A2985 RMK A01 T02411001  RH  020%=      5-min Rain = 0
KAM1 191927Z 22017KT 24/M00 A2985 RMK A01 T02421004  RH  020%=      5-min Rain = 0
KAM1 191928Z 21018KT 24/M00 A2985 RMK A01 T02431004  RH  020%=      5-min Rain = 0
KAM1 191929Z 20019KT 24/M00 A2985 RMK A01 T02431003  RH  020%=      5-min Rain = 0
KAM1 191930Z 20019G24KT 24/M01 A2985 RMK A01 T02441006  RH  019%=      5-min Rain = 0
KAM1 191931Z 19020G25KT 24/M01 A2985 RMK A01 T02441005  RH  019%=      5-min Rain = 0
KAM1 191932Z 20015G23KT 24/M00 A2985 RMK A01 T02431004  RH  019%=      5-min Rain = 0
KAM1 191933Z 21016KT 25/M00 A2985 RMK A01 T02451002  RH  020%=      5-min Rain = 0
KAM1 191934Z 20018G23KT 25/M00 A2984 RMK A01 T02481002  RH  019%=      5-min Rain = 0
KAM1 191935Z 21018KT 25/M00 A2984 RMK A01 T02471004  RH  019%=      5-min Rain = 0
KAM1 191936Z 19016KT 25/M00 A2984 RMK A01 T02461003  RH  019%=      5-min Rain = 0
KAM1 191937Z 20016KT 25/M00 A2984 RMK A01 T02471001  RH  020%=      5-min Rain = 0
KAM1 191938Z 19017G24KT 25/M00 A2984 RMK A01 T02481002  RH  019%=      5-min Rain = 0
KAM1 191939Z 20016KT 25/M00 A2984 RMK A01 T02481001  RH  019%=      5-min Rain = 0
KAM1 191940Z 20018KT 25/M00 A2984 RMK A01 T02491001  RH  019%=      5-min Rain = 0
KAM1 191941Z 20020KT 25/M00 A2984 RMK A01 T02491003  RH  019%=      5-min Rain = 0
KAM1 191942Z 20018G23KT 25/M00 A2984 RMK A01 T02461004  RH  019%=      5-min Rain = 0
KAM1 191943Z 20022KT 25/M00 A2984 RMK A01 T02451003  RH  019%=      5-min Rain = 0
KAM1 191944Z 20018KT 24/M01 A2984 RMK A01 T02441005  RH  019%=      5-min Rain = 0
KAM1 191945Z 20018G23KT 24/M00 A2984 RMK A01 T02431003  RH  020%=      5-min Rain = 0
KAM1 191946Z 20019KT 24/M00 A2984 RMK A01 T02441004  RH  019%=      5-min Rain = 0
KAM1 191947Z 20019KT 24/M01 A2984 RMK A01 T02441005  RH  019%=      5-min Rain = 0
KAM1 191948Z 20018KT 24/M01 A2984 RMK A01 T02431006  RH  019%=      5-min Rain = 0
KAM1 191949Z 20015KT 24/M00 A2984 RMK A01 T02431004  RH  020%=      5-min Rain = 0
KAM1 191950Z 20014KT 24/M00 A2983 RMK A01 T02431004  RH  020%=      5-min Rain = 0
KAM1 191951Z 21013KT 25/M00 A2983 RMK A01 T02451001  RH  020%=      5-min Rain = 0
KAM1 191952Z 20016G21KT 25/M00 A2983 RMK A01 T02471002  RH  019%=      5-min Rain = 0
KAM1 191953Z 20019KT 25/M00 A2983 RMK A01 T02481004  RH  019%=      5-min Rain = 0
KAM1 191954Z 20021KT 25/M01 A2983 RMK A01 T02451009  RH  019%=      5-min Rain = 0
KAM1 191955Z 20018KT 24/M01 A2983 RMK A01 T02421008  RH  019%=      5-min Rain = 0
KAM1 191956Z 20019G24KT 24/M01 A2983 RMK A01 T02411008  RH  019%=      5-min Rain = 0
KAM1 191957Z 19018G23KT 24/M01 A2983 RMK A01 T02371011  RH  019%=      5-min Rain = 0
KAM1 191958Z 19019KT 23/M01 A2983 RMK A01 T02321012  RH  020%=      5-min Rain = 0
KAM1 191959Z 20019KT 23/M01 A2983 RMK A01 T02291012  RH  020%=      5-min Rain = 0
KAM1 192000Z 20018KT 23/M01 A2983 RMK A01 T02271011  RH  020%=      5-min Rain = 0
KAM1 192001Z 21018KT 23/M01 A2983 RMK A01 T02281009  RH  021%=      5-min Rain = 0
KAM1 192002Z 20014KT 23/M01 A2983 RMK A01 T02321006  RH  021%=      5-min Rain = 0
KAM1 192003Z 20018KT 24/M01 A2983 RMK A01 T02351006  RH  020%=      5-min Rain = 0
KAM1 192004Z 21018KT 24/M01 A2983 RMK A01 T02371006  RH  020%=      5-min Rain = 0
KAM1 192005Z 21017G25KT 24/M01 A2983 RMK A01 T02391005  RH  020%=      5-min Rain = 0
KAM1 192006Z 21021G26KT 24/M01 A2983 RMK A01 T02411006  RH  020%=      5-min Rain = 0
KAM1 192007Z 20018KT 24/M01 A2983 RMK A01 T02411007  RH  019%=      5-min Rain = 0
KAM1 192008Z 21016KT 24/M01 A2983 RMK A01 T02411005  RH  020%=      5-min Rain = 0
KAM1 192009Z 20016KT 24/M00 A2983 RMK A01 T02441004  RH  020%=      5-min Rain = 0
KAM1 192010Z 19018G24KT 25/M00 A2983 RMK A01 T02451003  RH  019%=      5-min Rain = 0
KAM1 192011Z 21018G23KT 25/M00 A2983 RMK A01 T02461002  RH  019%=      5-min Rain = 0
KAM1 192012Z 20021KT 25/M00 A2983 RMK A01 T02471003  RH  019%=      5-min Rain = 0
KAM1 192013Z 20021KT 25/M00 A2983 RMK A01 T02461004  RH  019%=      5-min Rain = 0
KAM1 192014Z 20020KT 25/M01 A2983 RMK A01 T02451005  RH  019%=      5-min Rain = 0
KAM1 192015Z 20020KT 24/M01 A2982 RMK A01 T02441005  RH  019%=      5-min Rain = 0
KAM1 192016Z 21018KT 24/M00 A2983 RMK A01 T02431004  RH  019%=      5-min Rain = 0
KAM1 192017Z 20014KT 24/M00 A2982 RMK A01 T02431004  RH  020%=      5-min Rain = 0
KAM1 192018Z 20017KT 24/M00 A2982 RMK A01 T02441002  RH  020%=      5-min Rain = 0
KAM1 192019Z 20019KT 25/M00 A2982 RMK A01 T02451003  RH  019%=      5-min Rain = 0
KAM1 192020Z 20016KT 25/M00 A2982 RMK A01 T02461003  RH  019%=      5-min Rain = 0
KAM1 192021Z 19016G21KT 25/M00 A2982 RMK A01 T02481002  RH  019%=      5-min Rain = 0
KAM1 192022Z 20018G24KT 25/M00 A2982 RMK A01 T02491003  RH  019%=      5-min Rain = 0
KAM1 192023Z 20014KT 25/M00 A2982 RMK A01 T02481002  RH  019%=      5-min Rain = 0
KAM1 192024Z 21016G21KT 25/M00 A2982 RMK A01 T02501002  RH  019%=      5-min Rain = 0
KAM1 192025Z 19017KT 25/M00 A2982 RMK A01 T02501003  RH  019%=      5-min Rain = 0
KAM1 192026Z 20018KT 25/M01 A2982 RMK A01 T02491005  RH  019%=      5-min Rain = 0
KAM1 192027Z 20018KT 25/M01 A2982 RMK A01 T02471006  RH  019%=      5-min Rain = 0
KAM1 192028Z 19020G25KT 25/M01 A2982 RMK A01 T02461005  RH  019%=      5-min Rain = 0
KAM1 192029Z 20016G21KT 25/M01 A2982 RMK A01 T02461005  RH  019%=      5-min Rain = 0
KAM1 192030Z 20013KT 25/M00 A2982 RMK A01 T02461003  RH  019%=      5-min Rain = 0
KAM1 192031Z 20019G25KT 25/M00 A2982 RMK A01 T02481002  RH  019%=      5-min Rain = 0
KAM1 192032Z 20019KT 25/M01 A2982 RMK A01 T02491005  RH  019%=      5-min Rain = 0
KAM1 192033Z 20016G21KT 25/M00 A2982 RMK A01 T02471003  RH  019%=      5-min Rain = 0
KAM1 192034Z 20016KT 25/M00 A2982 RMK A01 T02481001  RH  019%=      5-min Rain = 0
KAM1 192035Z 20019G25KT 25/M00 A2981 RMK A01 T02501002  RH  019%=      5-min Rain = 0
KAM1 192036Z 20020G25KT 25/M00 A2982 RMK A01 T02491003  RH  019%=      5-min Rain = 0
KAM1 192037Z 20022G28KT 25/M00 A2981 RMK A01 T02471004  RH  019%=      5-min Rain = 0
KAM1 192038Z 20021KT 25/M01 A2981 RMK A01 T02451005  RH  019%=      5-min Rain = 0
KAM1 192039Z 19018G24KT 24/M00 A2981 RMK A01 T02441003  RH  019%=      5-min Rain = 0
KAM1 192040Z 20019G25KT 25/M00 A2981 RMK A01 T02451003  RH  019%=      5-min Rain = 0
KAM1 192041Z 20020G25KT 25/M00 A2981 RMK A01 T02461002  RH  019%=      5-min Rain = 0
KAM1 192042Z 20020KT 25/M00 A2981 RMK A01 T02471004  RH  019%=      5-min Rain = 0
KAM1 192043Z 21019KT 25/M01 A2981 RMK A01 T02461006  RH  019%=      5-min Rain = 0
KAM1 192044Z 21017KT 25/M01 A2981 RMK A01 T02451005  RH  019%=      5-min Rain = 0
KAM1 192045Z 19019G25KT 25/M00 A2981 RMK A01 T02451004  RH  019%=      5-min Rain = 0
KAM1 192046Z 19018KT 25/M00 A2981 RMK A01 T02451003  RH  019%=      5-min Rain = 0
KAM1 192047Z 20015G20KT 25/M00 A2981 RMK A01 T02461003  RH  019%=      5-min Rain = 0
KAM1 192048Z 19017KT 25/M00 A2981 RMK A01 T02461003  RH  019%=      5-min Rain = 0
KAM1 192049Z 20014KT 25/M00 A2981 RMK A01 T02461004  RH  019%=      5-min Rain = 0
KAM1 192050Z 20017G22KT 25/M00 A2981 RMK A01 T02461003  RH  019%=      5-min Rain = 0
KAM1 192051Z 19019G25KT 25/M01 A2981 RMK A01 T02471005  RH  019%=      5-min Rain = 0
KAM1 192052Z 20020KT 25/M01 A2981 RMK A01 T02471006  RH  019%=      5-min Rain = 0
KAM1 192053Z 20016G21KT 25/M01 A2981 RMK A01 T02461006  RH  019%=      5-min Rain = 0
KAM1 192054Z 20016G23KT 25/M01 A2981 RMK A01 T02461006  RH  019%=      5-min Rain = 0
KAM1 192055Z 20021KT 25/M01 A2981 RMK A01 T02471008  RH  019%=      5-min Rain = 0
KAM1 192056Z 22017KT 25/M01 A2981 RMK A01 T02461008  RH  019%=      5-min Rain = 0
KAM1 192057Z 22018KT 25/M01 A2981 RMK A01 T02461009  RH  019%=      5-min Rain = 0
KAM1 192058Z 21018KT 25/M01 A2981 RMK A01 T02451008  RH  019%=      5-min Rain = 0
KAM1 192059Z 20016KT 25/M01 A2981 RMK A01 T02451009  RH  019%=      5-min Rain = 0
KAM1 192100Z 19017KT 25/M01 A2981 RMK A01 T02451008  RH  019%=      5-min Rain = 0
KAM1 192101Z 21015KT 25/M01 A2981 RMK A01 T02471008  RH  019%=      5-min Rain = 0
KAM1 192102Z 21018G23KT 25/M01 A2981 RMK A01 T02481007  RH  018%=      5-min Rain = 0
KAM1 192103Z 21020KT 25/M01 A2981 RMK A01 T02491009  RH  018%=      5-min Rain = 0
KAM1 192104Z 21016KT 25/M01 A2981 RMK A01 T02471009  RH  018%=      5-min Rain = 0
KAM1 192105Z 20014G19KT 25/M01 A2981 RMK A01 T02471009  RH  018%=      5-min Rain = 0
KAM1 192106Z 20016G22KT 25/M01 A2981 RMK A01 T02481009  RH  018%=      5-min Rain = 0
KAM1 192107Z 19019KT 25/M01 A298 RMK A01 T02481009  RH  018%=      5-min Rain = 0
KAM1 192108Z 21016KT 25/M01 A2981 RMK A01 T02481009  RH  018%=      5-min Rain = 0
KAM1 192109Z 20015KT 25/M01 A2981 RMK A01 T02481009  RH  018%=      5-min Rain = 0
KAM1 192110Z 20014KT 25/M01 A2981 RMK A01 T02481009  RH  018%=      5-min Rain = 0
KAM1 192111Z 22014KT 25/M01 A2981 RMK A01 T02481008  RH  018%=      5-min Rain = 0
KAM1 192112Z 20017KT 25/M01 A298 RMK A01 T02491009  RH  018%=      5-min Rain = 0
KAM1 192113Z 20016G21KT 25/M01 A298 RMK A01 T02491012  RH  018%=      5-min Rain = 0
KAM1 192114Z 20019G26KT 25/M01 A298 RMK A01 T02481011  RH  018%=      5-min Rain = 0
KAM1 192115Z 20017G23KT 25/M01 A298 RMK A01 T02481011  RH  018%=      5-min Rain = 0
KAM1 192116Z 20019G24KT 25/M01 A298 RMK A01 T02471012  RH  018%=      5-min Rain = 0
KAM1 192117Z 20018KT 25/M01 A298 RMK A01 T02471013  RH  018%=      5-min Rain = 0
KAM1 192118Z 20021KT 25/M01 A298 RMK A01 T02471013  RH  018%=      5-min Rain = 0
KAM1 192119Z 20019G24KT 25/M01 A298 RMK A01 T02461014  RH  018%=      5-min Rain = 0
KAM1 192120Z 20016KT 25/M01 A298 RMK A01 T02461013  RH  018%=      5-min Rain = 0
KAM1 192121Z 20014KT 25/M01 A298 RMK A01 T02461012  RH  018%=      5-min Rain = 0
KAM1 192122Z 19015KT 25/M01 A298 RMK A01 T02471012  RH  018%=      5-min Rain = 0
KAM1 192123Z 20013KT 25/M01 A298 RMK A01 T02481012  RH  018%=      5-min Rain = 0
KAM1 192124Z 20014G19KT 25/M01 A298 RMK A01 T02481010  RH  018%=      5-min Rain = 0
KAM1 192125Z 20017KT 25/M01 A298 RMK A01 T02501011  RH  018%=      5-min Rain = 0
KAM1 192126Z 20016G23KT 25/M01 A298 RMK A01 T02481013  RH  018%=      5-min Rain = 0
KAM1 192127Z 20013G19KT 25/M01 A298 RMK A01 T02471013  RH  018%=      5-min Rain = 0
KAM1 192128Z 20015KT 25/M01 A298 RMK A01 T02481010  RH  018%=      5-min Rain = 0
KAM1 192129Z 20015G22KT 25/M01 A298 RMK A01 T02481011  RH  018%=      5-min Rain = 0
KAM1 192130Z 19018KT 25/M01 A298 RMK A01 T02481012  RH  018%=      5-min Rain = 0
KAM1 192131Z 19018KT 25/M01 A298 RMK A01 T02461014  RH  018%=      5-min Rain = 0
KAM1 192132Z 19017KT 24/M01 A298 RMK A01 T02441014  RH  018%=      5-min Rain = 0
KAM1 192133Z 20018KT 24/M01 A298 RMK A01 T02441013  RH  018%=      5-min Rain = 0
KAM1 192134Z 20017G22KT 24/M01 A298 RMK A01 T02441013  RH  018%=      5-min Rain = 0
KAM1 192135Z 21019KT 24/M01 A298 RMK A01 T02441013  RH  018%=      5-min Rain = 0
KAM1 192136Z 19017KT 24/M01 A298 RMK A01 T02431012  RH  018%=      5-min Rain = 0
KAM1 192137Z 20015KT 24/M01 A298 RMK A01 T02441012  RH  018%=      5-min Rain = 0
KAM1 192138Z 19018G24KT 25/M01 A298 RMK A01 T02451011  RH  018%=      5-min Rain = 0
KAM1 192139Z 20019KT 25/M01 A298 RMK A01 T02451012  RH  018%=      5-min Rain = 0
KAM1 192140Z 19015G20KT 24/M01 A298 RMK A01 T02441014  RH  018%=      5-min Rain = 0
KAM1 192141Z 20013KT 24/M01 A298 RMK A01 T02441012  RH  018%=      5-min Rain = 0
KAM1 192142Z 20019G24KT 25/M01 A298 RMK A01 T02451012  RH  018%=      5-min Rain = 0
KAM1 192143Z 21016G22KT 24/M01 A298 RMK A01 T02441014  RH  018%=      5-min Rain = 0
KAM1 192144Z 21015KT 24/M01 A2981 RMK A01 T02431014  RH  018%=      5-min Rain = 0
KAM1 192145Z 21017KT 24/M01 A298 RMK A01 T02431014  RH  018%=      5-min Rain = 0
KAM1 192146Z 20015KT 24/M02 A298 RMK A01 T02421015  RH  018%=      5-min Rain = 0
KAM1 192147Z 20015KT 24/M01 A298 RMK A01 T02421013  RH  018%=      5-min Rain = 0
KAM1 192148Z 20016KT 24/M01 A298 RMK A01 T02421013  RH  018%=      5-min Rain = 0
KAM1 192149Z 19019KT 24/M01 A298 RMK A01 T02421013  RH  018%=      5-min Rain = 0
KAM1 192150Z 19020KT 24/M01 A298 RMK A01 T02421013  RH  018%=      5-min Rain = 0
KAM1 192151Z 19020KT 24/M01 A298 RMK A01 T02401013  RH  019%=      5-min Rain = 0
KAM1 192152Z 19020KT 24/M01 A298 RMK A01 T02391012  RH  019%=      5-min Rain = 0
KAM1 192153Z 20018KT 24/M01 A298 RMK A01 T02391014  RH  019%=      5-min Rain = 0
KAM1 192154Z 19016KT 24/M01 A298 RMK A01 T02381013  RH  019%=      5-min Rain = 0
KAM1 192155Z 19020KT 24/M01 A298 RMK A01 T02381014  RH  019%=      5-min Rain = 0
KAM1 192156Z 19019G24KT 24/M02 A298 RMK A01 T02371015  RH  019%=      5-min Rain = 0
KAM1 192157Z 20017KT 24/M02 A298 RMK A01 T02371015  RH  019%=      5-min Rain = 0
KAM1 192158Z 20015G20KT 24/M02 A298 RMK A01 T02361015  RH  019%=      5-min Rain = 0
KAM1 192159Z 20015KT 24/M01 A298 RMK A01 T02361014  RH  019%=      5-min Rain = 0
KAM1 192200Z 20015KT 24/M02 A298 RMK A01 T02361015  RH  019%=      5-min Rain = 0
KAM1 192201Z 20019KT 24/M02 A298 RMK A01 T02361016  RH  019%=      5-min Rain = 0
KAM1 192202Z 19016G22KT 24/M02 A298 RMK A01 T02371016  RH  019%=      5-min Rain = 0
KAM1 192203Z 19019KT 24/M02 A298 RMK A01 T02361017  RH  019%=      5-min Rain = 0
KAM1 192204Z 20016KT 24/M02 A298 RMK A01 T02361016  RH  019%=      5-min Rain = 0
KAM1 192205Z 19018KT 24/M02 A298 RMK A01 T02351017  RH  019%=      5-min Rain = 0
KAM1 192206Z 19017G22KT 24/M02 A298 RMK A01 T02351016  RH  019%=      5-min Rain = 0
KAM1 192207Z 20016KT 23/M02 A298 RMK A01 T02341015  RH  019%=      5-min Rain = 0
KAM1 192208Z 19017KT 23/M01 A298 RMK A01 T02341014  RH  019%=      5-min Rain = 0
KAM1 192209Z 19018KT 23/M02 A298 RMK A01 T02341015  RH  019%=      5-min Rain = 0
KAM1 192210Z 19018KT 23/M02 A298 RMK A01 T02341015  RH  019%=      5-min Rain = 0
KAM1 192211Z 19015KT 23/M01 A298 RMK A01 T02331014  RH  019%=      5-min Rain = 0
KAM1 192212Z 20012KT 23/M01 A298 RMK A01 T02331013  RH  019%=      5-min Rain = 0
KAM1 192213Z 20012KT 23/M01 A298 RMK A01 T02331012  RH  020%=      5-min Rain = 0
KAM1 192214Z 19013KT 23/M01 A298 RMK A01 T02321012  RH  020%=      5-min Rain = 0
KAM1 192215Z 19014KT 23/M01 A298 RMK A01 T02311012  RH  020%=      5-min Rain = 0
KAM1 192216Z 20016KT 23/M01 A298 RMK A01 T02311013  RH  020%=      5-min Rain = 0
KAM1 192217Z 19015KT 23/M01 A298 RMK A01 T02311013  RH  020%=      5-min Rain = 0
KAM1 192218Z 19014KT 23/M01 A298 RMK A01 T02311014  RH  020%=      5-min Rain = 0
KAM1 192219Z 19014KT 23/M01 A298 RMK A01 T02301014  RH  020%=      5-min Rain = 0
KAM1 192220Z 20016KT 23/M01 A298 RMK A01 T02301014  RH  020%=      5-min Rain = 0
KAM1 192221Z 19015KT 23/M02 A298 RMK A01 T02311015  RH  019%=      5-min Rain = 0
KAM1 192222Z 19013KT 23/M01 A298 RMK A01 T02311014  RH  019%=      5-min Rain = 0
KAM1 192223Z 20012KT 23/M01 A298 RMK A01 T02321014  RH  019%=      5-min Rain = 0
KAM1 192224Z 19011KT 23/M01 A298 RMK A01 T02331012  RH  020%=      5-min Rain = 0
KAM1 192225Z 19014G19KT 23/M01 A298 RMK A01 T02331013  RH  020%=      5-min Rain = 0
KAM1 192226Z 19014KT 23/M01 A298 RMK A01 T02331013  RH  019%=      5-min Rain = 0
KAM1 192227Z 19014KT 23/M01 A298 RMK A01 T02331013  RH  019%=      5-min Rain = 0
KAM1 192228Z 19013KT 23/M01 A298 RMK A01 T02321013  RH  019%=      5-min Rain = 0
KAM1 192229Z 19015KT 23/M01 A298 RMK A01 T02321012  RH  020%=      5-min Rain = 0
KAM1 192230Z 19014KT 23/M01 A298 RMK A01 T02311013  RH  020%=      5-min Rain = 0
KAM1 192231Z 19012KT 23/M01 A298 RMK A01 T02311012  RH  020%=      5-min Rain = 0
KAM1 192232Z 19013KT 23/M01 A298 RMK A01 T02311011  RH  020%=      5-min Rain = 0
KAM1 192233Z 19014KT 23/M01 A298 RMK A01 T02311012  RH  020%=      5-min Rain = 0
KAM1 192234Z 20016KT 23/M01 A298 RMK A01 T02301012  RH  020%=      5-min Rain = 0
KAM1 192235Z 19011KT 23/M01 A298 RMK A01 T02301012  RH  020%=      5-min Rain = 0
KAM1 192236Z 19012KT 23/M01 A298 RMK A01 T02301011  RH  020%=      5-min Rain = 0
KAM1 192237Z 19011KT 23/M01 A298 RMK A01 T02291011  RH  020%=      5-min Rain = 0
KAM1 192238Z 19011KT 23/M01 A298 RMK A01 T02291010  RH  020%=      5-min Rain = 0
KAM1 192239Z 19011KT 23/M01 A298 RMK A01 T02291011  RH  020%=      5-min Rain = 0
KAM1 192240Z 19016KT 23/M01 A298 RMK A01 T02281011  RH  020%=      5-min Rain = 0
KAM1 192241Z 19013KT 23/M01 A298 RMK A01 T02281012  RH  020%=      5-min Rain = 0
KAM1 192242Z 20013KT 23/M01 A298 RMK A01 T02281012  RH  020%=      5-min Rain = 0
KAM1 192243Z 19011KT 23/M01 A298 RMK A01 T02281012  RH  020%=      5-min Rain = 0
KAM1 192244Z 19014KT 23/M01 A298 RMK A01 T02281011  RH  020%=      5-min Rain = 0
KAM1 192245Z 19012KT 23/M01 A298 RMK A01 T02271012  RH  020%=      5-min Rain = 0
KAM1 192246Z 19012G17KT 23/M01 A298 RMK A01 T02271011  RH  020%=      5-min Rain = 0
KAM1 192247Z 19013KT 23/M01 A298 RMK A01 T02271011  RH  020%=      5-min Rain = 0
KAM1 192248Z 19012KT 23/M01 A298 RMK A01 T02261011  RH  021%=      5-min Rain = 0
KAM1 192249Z 19011KT 23/M01 A298 RMK A01 T02261011  RH  021%=      5-min Rain = 0
KAM1 192250Z 19011KT 23/M01 A298 RMK A01 T02251011  RH  021%=      5-min Rain = 0
KAM1 192251Z 19011KT 23/M01 A298 RMK A01 T02251011  RH  021%=      5-min Rain = 0
KAM1 192252Z 19011KT 23/M01 A298 RMK A01 T02251011  RH  021%=      5-min Rain = 0
KAM1 192253Z 18011KT 23/M01 A2979 RMK A01 T02251010  RH  021%=      5-min Rain = 0
KAM1 192254Z 19012KT 22/M01 A2979 RMK A01 T02241010  RH  021%=      5-min Rain = 0
KAM1 192255Z 19012KT 22/M01 A2979 RMK A01 T02241011  RH  021%=      5-min Rain = 0
KAM1 192256Z 19012KT 22/M01 A2979 RMK A01 T02241010  RH  021%=      5-min Rain = 0
KAM1 192257Z 19012KT 22/M01 A2979 RMK A01 T02231011  RH  021%=      5-min Rain = 0
KAM1 192258Z 19011KT 22/M01 A2979 RMK A01 T02231010  RH  021%=      5-min Rain = 0
KAM1 192259Z 19013KT 22/M01 A2979 RMK A01 T02221010  RH  021%=      5-min Rain = 0
KAM1 192300Z 19012KT 22/M01 A2979 RMK A01 T02221010  RH  021%=      5-min Rain = 0
KAM1 192301Z 19012KT 22/M01 A2979 RMK A01 T02221010  RH  021%=      5-min Rain = 0
KAM1 192302Z 19011KT 22/M01 A2979 RMK A01 T02221009  RH  021%=      5-min Rain = 0
KAM1 192303Z 19012KT 22/M01 A2979 RMK A01 T02211009  RH  022%=      5-min Rain = 0
KAM1 192304Z 18012KT 22/M01 A2979 RMK A01 T02201009  RH  022%=      5-min Rain = 0
KAM1 192305Z 19011KT 22/M01 A2979 RMK A01 T02191009  RH  022%=      5-min Rain = 0
KAM1 192306Z 18010KT 22/M01 A2979 RMK A01 T02181009  RH  022%=      5-min Rain = 0
KAM1 192307Z 19010KT 22/M01 A2979 RMK A01 T02171009  RH  022%=      5-min Rain = 0
KAM1 192308Z 18010KT 22/M01 A2979 RMK A01 T02161009  RH  022%=      5-min Rain = 0
KAM1 192309Z 18009KT 22/M01 A2979 RMK A01 T02151009  RH  022%=      5-min Rain = 0
KAM1 192310Z 18010KT 21/M01 A2979 RMK A01 T02141008  RH  023%=      5-min Rain = 0
KAM1 192311Z 18009KT 21/M01 A2979 RMK A01 T02121009  RH  023%=      5-min Rain = 0
KAM1 192312Z 18010KT 21/M01 A2979 RMK A01 T02111009  RH  023%=      5-min Rain = 0
KAM1 192313Z 18010KT 21/M01 A2979 RMK A01 T02091009  RH  023%=      5-min Rain = 0
KAM1 192314Z 18009KT 21/M01 A2979 RMK A01 T02091008  RH  023%=      5-min Rain = 0
KAM1 192315Z 18009KT 21/M01 A2979 RMK A01 T02081009  RH  023%=      5-min Rain = 0
KAM1 192316Z 18009KT 21/M01 A2979 RMK A01 T02061009  RH  024%=      5-min Rain = 0
KAM1 192317Z 18009KT 21/M01 A2979 RMK A01 T02051009  RH  024%=      5-min Rain = 0
KAM1 192318Z 18008KT 20/M01 A2979 RMK A01 T02031009  RH  024%=      5-min Rain = 0
KAM1 192319Z 17009KT 20/M01 A2979 RMK A01 T02011010  RH  024%=      5-min Rain = 0
KAM1 192320Z 17008KT 20/M01 A2979 RMK A01 T02001010  RH  024%=      5-min Rain = 0
KAM1 192321Z 17008KT 20/M01 A2979 RMK A01 T01991009  RH  025%=      5-min Rain = 0
KAM1 192322Z 17009KT 20/M01 A2979 RMK A01 T01981009  RH  025%=      5-min Rain = 0
KAM1 192323Z 17009KT 20/M01 A2979 RMK A01 T01971009  RH  025%=      5-min Rain = 0
KAM1 192324Z 18009KT 20/M01 A2979 RMK A01 T01961009  RH  025%=      5-min Rain = 0
KAM1 192325Z 18009KT 20/M01 A2979 RMK A01 T01951009  RH  025%=      5-min Rain = 0
KAM1 192326Z 18009KT 19/M01 A2979 RMK A01 T01941009  RH  025%=      5-min Rain = 0
KAM1 192327Z 18009KT 19/M01 A2979 RMK A01 T01931009  RH  026%=      5-min Rain = 0
KAM1 192328Z 17009KT 19/M01 A2979 RMK A01 T01921008  RH  026%=      5-min Rain = 0
KAM1 192329Z 17009KT 19/M01 A2979 RMK A01 T01911009  RH  026%=      5-min Rain = 0
KAM1 192330Z 17009KT 19/M01 A2979 RMK A01 T01911009  RH  026%=      5-min Rain = 0
KAM1 192331Z 18009KT 19/M01 A2979 RMK A01 T01901009  RH  026%=      5-min Rain = 0
KAM1 192332Z 18009KT 19/M01 A2979 RMK A01 T01891009  RH  026%=      5-min Rain = 0
KAM1 192333Z 17010KT 19/M01 A2979 RMK A01 T01881009  RH  026%=      5-min Rain = 0
KAM1 192334Z 17010KT 19/M01 A2979 RMK A01 T01861008  RH  027%=      5-min Rain = 0
KAM1 192335Z 17010KT 19/M01 A2979 RMK A01 T01861008  RH  027%=      5-min Rain = 0
KAM1 192336Z 17009KT 19/M01 A2979 RMK A01 T01851008  RH  027%=      5-min Rain = 0
KAM1 192337Z 17009KT 19/M01 A2979 RMK A01 T01851008  RH  027%=      5-min Rain = 0
KAM1 192338Z 17010KT 18/M01 A2979 RMK A01 T01841008  RH  027%=      5-min Rain = 0
KAM1 192339Z 17010KT 18/M01 A2979 RMK A01 T01841008  RH  027%=      5-min Rain = 0
KAM1 192340Z 17010KT 18/M01 A2979 RMK A01 T01841008  RH  027%=      5-min Rain = 0
KAM1 192341Z 17009KT 18/M01 A2979 RMK A01 T01841008  RH  027%=      5-min Rain = 0
KAM1 192342Z 17010KT 18/M01 A2979 RMK A01 T01831008  RH  027%=      5-min Rain = 0
KAM1 192343Z 17010KT 18/M01 A2979 RMK A01 T01821009  RH  027%=      5-min Rain = 0
KAM1 192344Z 17009KT 18/M01 A2979 RMK A01 T01821009  RH  028%=      5-min Rain = 0
KAM1 192345Z 17009KT 18/M01 A2979 RMK A01 T01811009  RH  028%=      5-min Rain = 0
KAM1 192346Z 17009KT 18/M01 A2979 RMK A01 T01791009  RH  028%=      5-min Rain = 0
KAM1 192347Z 17009KT 18/M01 A2979 RMK A01 T01781010  RH  028%=      5-min Rain = 0
KAM1 192348Z 17010KT 18/M01 A2979 RMK A01 T01771010  RH  028%=      5-min Rain = 0
KAM1 192349Z 17009KT 18/M01 A2979 RMK A01 T01761009  RH  028%=      5-min Rain = 0
KAM1 192350Z 17009KT 18/M01 A2979 RMK A01 T01761009  RH  028%=      5-min Rain = 0
KAM1 192351Z 17009KT 18/M01 A2979 RMK A01 T01751009  RH  029%=      5-min Rain = 0
KAM1 192352Z 17009KT 18/M01 A2979 RMK A01 T01751009  RH  029%=      5-min Rain = 0
KAM1 192353Z 17008KT 17/M01 A2979 RMK A01 T01731009  RH  029%=      5-min Rain = 0
KAM1 192354Z 17008KT 17/M01 A298 RMK A01 T01721009  RH  029%=      5-min Rain = 0
KAM1 192355Z 17008KT 17/M01 A298 RMK A01 T01711009  RH  029%=      5-min Rain = 0
KAM1 192356Z 17008KT 17/M01 A298 RMK A01 T01691010  RH  029%=      5-min Rain = 0
KAM1 192357Z 17009KT 17/M01 A298 RMK A01 T01681010  RH  030%=      5-min Rain = 0
KAM1 192358Z 17008KT 17/M01 A298 RMK A01 T01671010  RH  030%=      5-min Rain = 0
KAM1 192359Z 17009KT 17/M01 A298 RMK A01 T01671010  RH  030%=      5-min Rain = 0
KAM1 200000Z 17009KT 17/M01 A298 RMK A01 T01671010  RH  030%=      5-min Rain = 0
KAM1 200001Z 17009KT 17/M01 A298 RMK A01 T01691009  RH  030%=      5-min Rain = 0
KAM1 200002Z 17009KT 17/M01 A298 RMK A01 T01701009  RH  030%=      5-min Rain = 0
KAM1 200003Z 17009KT 17/M01 A298 RMK A01 T01711009  RH  029%=      5-min Rain = 0
KAM1 200004Z 17010KT 17/M01 A298 RMK A01 T01711009  RH  029%=      5-min Rain = 0
KAM1 200005Z 17010KT 17/M01 A298 RMK A01 T01711009  RH  029%=      5-min Rain = 0
KAM1 200006Z 17009KT 17/M01 A298 RMK A01 T01711010  RH  029%=      5-min Rain = 0
KAM1 200007Z 17009KT 17/M01 A298 RMK A01 T01711010  RH  029%=      5-min Rain = 0
KAM1 200008Z 17009KT 17/M01 A298 RMK A01 T01701010  RH  029%=      5-min Rain = 0
KAM1 200009Z 17009KT 17/M01 A298 RMK A01 T01701010  RH  029%=      5-min Rain = 0
KAM1 200010Z 17010KT 17/M01 A298 RMK A01 T01691010  RH  029%=      5-min Rain = 0
KAM1 200011Z 17009KT 17/M01 A298 RMK A01 T01691011  RH  029%=      5-min Rain = 0
KAM1 200012Z 17010KT 17/M01 A298 RMK A01 T01691011  RH  029%=      5-min Rain = 0
KAM1 200013Z 18010KT 17/M01 A298 RMK A01 T01691011  RH  029%=      5-min Rain = 0
KAM1 200014Z 17010KT 17/M01 A298 RMK A01 T01691011  RH  029%=      5-min Rain = 0
KAM1 200015Z 17010KT 17/M01 A298 RMK A01 T01691011  RH  029%=      5-min Rain = 0
KAM1 200016Z 17009KT 17/M01 A298 RMK A01 T01691012  RH  029%=      5-min Rain = 0
KAM1 200017Z 17010KT 17/M01 A298 RMK A01 T01701012  RH  029%=      5-min Rain = 0
KAM1 200018Z 17009KT 17/M01 A298 RMK A01 T01691012  RH  029%=      5-min Rain = 0
KAM1 200019Z 17009KT 17/M01 A298 RMK A01 T01691012  RH  029%=      5-min Rain = 0
KAM1 200020Z 17009KT 17/M01 A298 RMK A01 T01691012  RH  029%=      5-min Rain = 0
KAM1 200021Z 17009KT 17/M01 A298 RMK A01 T01681012  RH  029%=      5-min Rain = 0
KAM1 200022Z 17010KT 17/M01 A298 RMK A01 T01681012  RH  029%=      5-min Rain = 0
KAM1 200023Z 17009KT 17/M01 A298 RMK A01 T01681012  RH  029%=      5-min Rain = 0
KAM1 200024Z 17009KT 17/M01 A298 RMK A01 T01681012  RH  029%=      5-min Rain = 0
KAM1 200025Z 17009KT 17/M01 A298 RMK A01 T01671012  RH  030%=      5-min Rain = 0
KAM1 200026Z 17009KT 17/M01 A298 RMK A01 T01661012  RH  030%=      5-min Rain = 0
KAM1 200027Z 17009KT 17/M01 A298 RMK A01 T01661012  RH  030%=      5-min Rain = 0
KAM1 200028Z 17010KT 17/M01 A298 RMK A01 T01671011  RH  030%=      5-min Rain = 0
KAM1 200029Z 17010KT 17/M01 A298 RMK A01 T01671012  RH  030%=      5-min Rain = 0
KAM1 200030Z 17010KT 17/M01 A298 RMK A01 T01671011  RH  030%=      5-min Rain = 0
KAM1 200031Z 17011KT 17/M01 A298 RMK A01 T01681011  RH  029%=      5-min Rain = 0
KAM1 200032Z 17010KT 17/M01 A298 RMK A01 T01681011  RH  029%=      5-min Rain = 0
KAM1 200033Z 17010KT 17/M01 A298 RMK A01 T01691011  RH  029%=      5-min Rain = 0
KAM1 200034Z 17009KT 17/M01 A298 RMK A01 T01691011  RH  029%=      5-min Rain = 0
KAM1 200035Z 17010KT 17/M01 A298 RMK A01 T01681011  RH  029%=      5-min Rain = 0
KAM1 200036Z 17010KT 17/M01 A298 RMK A01 T01681011  RH  029%=      5-min Rain = 0
KAM1 200037Z 17010KT 17/M01 A298 RMK A01 T01681011  RH  030%=      5-min Rain = 0
KAM1 200038Z 17011KT 17/M01 A298 RMK A01 T01661011  RH  030%=      5-min Rain = 0
KAM1 200039Z 17012KT 17/M01 A2981 RMK A01 T01661011  RH  030%=      5-min Rain = 0
KAM1 200040Z 17011KT 17/M01 A2981 RMK A01 T01671011  RH  030%=      5-min Rain = 0
KAM1 200041Z 17012KT 17/M01 A2981 RMK A01 T01681011  RH  030%=      5-min Rain = 0
KAM1 200042Z 17011KT 17/M01 A2981 RMK A01 T01691011  RH  029%=      5-min Rain = 0
KAM1 200043Z 17011KT 17/M01 A2981 RMK A01 T01691011  RH  029%=      5-min Rain = 0
KAM1 200044Z 17011KT 17/M01 A298 RMK A01 T01691011  RH  029%=      5-min Rain = 0
KAM1 200045Z 17011KT 17/M01 A298 RMK A01 T01681011  RH  029%=      5-min Rain = 0
KAM1 200046Z 17011KT 17/M01 A298 RMK A01 T01681011  RH  030%=      5-min Rain = 0
KAM1 200047Z 17011KT 17/M01 A2981 RMK A01 T01671012  RH  030%=      5-min Rain = 0
KAM1 200048Z 17010KT 17/M01 A2981 RMK A01 T01661012  RH  030%=      5-min Rain = 0
KAM1 200049Z 17012KT 17/M01 A298 RMK A01 T01651011  RH  030%=      5-min Rain = 0
KAM1 200050Z 17011KT 17/M01 A298 RMK A01 T01651011  RH  030%=      5-min Rain = 0
KAM1 200051Z 17011KT 17/M01 A298 RMK A01 T01651011  RH  030%=      5-min Rain = 0
KAM1 200052Z 17012KT 16/M01 A298 RMK A01 T01641012  RH  030%=      5-min Rain = 0
KAM1 200053Z 17011KT 16/M01 A298 RMK A01 T01641012  RH  030%=      5-min Rain = 0
KAM1 200054Z 17011KT 16/M01 A298 RMK A01 T01641012  RH  030%=      5-min Rain = 0
KAM1 200055Z 17011KT 16/M01 A298 RMK A01 T01641012  RH  030%=      5-min Rain = 0
KAM1 200056Z 17013KT 17/M01 A298 RMK A01 T01651012  RH  030%=      5-min Rain = 0
KAM1 200057Z 17011KT 17/M01 A298 RMK A01 T01661012  RH  030%=      5-min Rain = 0
KAM1 200058Z 17011KT 17/M01 A298 RMK A01 T01661012  RH  030%=      5-min Rain = 0
KAM1 200059Z 17011KT 17/M01 A298 RMK A01 T01651012  RH  030%=      5-min Rain = 0
KAM1 200100Z 17012KT 17/M01 A298 RMK A01 T01651012  RH  030%=      5-min Rain = 0
KAM1 200101Z 17012KT 17/M01 A298 RMK A01 T01651012  RH  030%=      5-min Rain = 0
KAM1 200102Z 17011KT 17/M01 A298 RMK A01 T01651012  RH  030%=      5-min Rain = 0
KAM1 200103Z 17011KT 17/M01 A298 RMK A01 T01661012  RH  030%=      5-min Rain = 0
KAM1 200104Z 17012KT 17/M01 A298 RMK A01 T01651012  RH  030%=      5-min Rain = 0
KAM1 200105Z 17011KT 17/M01 A298 RMK A01 T01651012  RH  030%=      5-min Rain = 0
KAM1 200106Z 17012KT 17/M01 A298 RMK A01 T01651012  RH  030%=      5-min Rain = 0
KAM1 200107Z 18011KT 17/M01 A298 RMK A01 T01651012  RH  030%=      5-min Rain = 0
KAM1 200108Z 17011KT 17/M01 A298 RMK A01 T01651012  RH  030%=      5-min Rain = 0
KAM1 200109Z 17011KT 16/M01 A298 RMK A01 T01641012  RH  030%=      5-min Rain = 0
KAM1 200110Z 17012KT 16/M01 A298 RMK A01 T01631012  RH  030%=      5-min Rain = 0
KAM1 200111Z 17011KT 16/M01 A298 RMK A01 T01631012  RH  030%=      5-min Rain = 0
KAM1 200112Z 17012KT 16/M01 A298 RMK A01 T01621012  RH  030%=      5-min Rain = 0
KAM1 200113Z 17012G18KT 16/M01 A298 RMK A01 T01621012  RH  030%=      5-min Rain = 0
KAM1 200114Z 17012KT 16/M01 A298 RMK A01 T01621012  RH  031%=      5-min Rain = 0
KAM1 200115Z 17012KT 16/M01 A298 RMK A01 T01621012  RH  030%=      5-min Rain = 0
KAM1 200116Z 17010KT 16/M01 A298 RMK A01 T01621012  RH  030%=      5-min Rain = 0
KAM1 200117Z 17009KT 16/M01 A298 RMK A01 T01611012  RH  030%=      5-min Rain = 0
KAM1 200118Z 16012KT 16/M01 A298 RMK A01 T01591013  RH  031%=      5-min Rain = 0
KAM1 200119Z 16010KT 16/M01 A298 RMK A01 T01591012  RH  031%=      5-min Rain = 0
KAM1 200120Z 16011KT 16/M01 A298 RMK A01 T01581012  RH  031%=      5-min Rain = 0
KAM1 200121Z 16010KT 16/M01 A298 RMK A01 T01581012  RH  031%=      5-min Rain = 0
KAM1 200122Z 16010KT 16/M01 A298 RMK A01 T01561012  RH  032%=      5-min Rain = 0
KAM1 200123Z 16012KT 16/M01 A298 RMK A01 T01551012  RH  032%=      5-min Rain = 0
KAM1 200124Z 16011KT 15/M01 A298 RMK A01 T01521013  RH  032%=      5-min Rain = 0
KAM1 200125Z 16010KT 15/M01 A298 RMK A01 T01511012  RH  033%=      5-min Rain = 0
KAM1 200126Z 15010KT 15/M01 A298 RMK A01 T01491013  RH  033%=      5-min Rain = 0
KAM1 200127Z 15011KT 15/M01 A298 RMK A01 T01471013  RH  033%=      5-min Rain = 0
KAM1 200128Z 15010KT 15/M01 A298 RMK A01 T01451012  RH  034%=      5-min Rain = 0
KAM1 200129Z 15010KT 14/M01 A2981 RMK A01 T01441012  RH  034%=      5-min Rain = 0
KAM1 200130Z 15010KT 14/M01 A298 RMK A01 T01431012  RH  034%=      5-min Rain = 0
KAM1 200131Z 15010KT 14/M01 A298 RMK A01 T01421012  RH  035%=      5-min Rain = 0
KAM1 200132Z 15010KT 14/M01 A298 RMK A01 T01411012  RH  035%=      5-min Rain = 0
KAM1 200133Z 15010KT 14/M01 A298 RMK A01 T01411011  RH  035%=      5-min Rain = 0
KAM1 200134Z 15010KT 14/M01 A298 RMK A01 T01411011  RH  035%=      5-min Rain = 0
KAM1 200135Z 15010KT 14/M01 A298 RMK A01 T01401011  RH  035%=      5-min Rain = 0
KAM1 200136Z 15010KT 14/M01 A298 RMK A01 T01401010  RH  035%=      5-min Rain = 0
KAM1 200137Z 15009KT 14/M01 A298 RMK A01 T01411010  RH  035%=      5-min Rain = 0
KAM1 200138Z 15010KT 14/M01 A298 RMK A01 T01411009  RH  035%=      5-min Rain = 0
KAM1 200139Z 15010KT 14/M01 A298 RMK A01 T01421008  RH  035%=      5-min Rain = 0
KAM1 200140Z 16010KT 14/M01 A298 RMK A01 T01421008  RH  035%=      5-min Rain = 0
KAM1 200141Z 16011KT 14/M01 A298 RMK A01 T01431008  RH  035%=      5-min Rain = 0
KAM1 200142Z 15010KT 14/M01 A298 RMK A01 T01441007  RH  035%=      5-min Rain = 0
KAM1 200143Z 16010KT 15/M01 A298 RMK A01 T01451007  RH  035%=      5-min Rain = 0
KAM1 200144Z 15011KT 15/M01 A298 RMK A01 T01451007  RH  035%=      5-min Rain = 0
KAM1 200145Z 16011KT 15/M01 A298 RMK A01 T01451007  RH  035%=      5-min Rain = 0
KAM1 200146Z 16010KT 15/M01 A298 RMK A01 T01461007  RH  035%=      5-min Rain = 0
KAM1 200147Z 15011KT 15/M01 A298 RMK A01 T01461007  RH  035%=      5-min Rain = 0
KAM1 200148Z 16011KT 15/M01 A298 RMK A01 T01461006  RH  035%=      5-min Rain = 0
KAM1 200149Z 15010KT 15/M01 A298 RMK A01 T01461006  RH  035%=      5-min Rain = 0
KAM1 200150Z 16011KT 15/M01 A298 RMK A01 T01461006  RH  035%=      5-min Rain = 0
KAM1 200151Z 16011KT 15/M01 A298 RMK A01 T01471005  RH  035%=      5-min Rain = 0
KAM1 200152Z 16010KT 15/M01 A2981 RMK A01 T01471005  RH  035%=      5-min Rain = 0
KAM1 200153Z 16011KT 15/M01 A2981 RMK A01 T01471005  RH  035%=      5-min Rain = 0
KAM1 200154Z 16010KT 15/M00 A2981 RMK A01 T01471004  RH  035%=      5-min Rain = 0
KAM1 200155Z 16010KT 15/M01 A2981 RMK A01 T01471005  RH  035%=      5-min Rain = 0
KAM1 200156Z 16010KT 15/M01 A2981 RMK A01 T01461005  RH  035%=      5-min Rain = 0
KAM1 200157Z 17012KT 15/M01 A2981 RMK A01 T01461005  RH  035%=      5-min Rain = 0
KAM1 200158Z 16010KT 15/M01 A2981 RMK A01 T01461005  RH  035%=      5-min Rain = 0
KAM1 200159Z 17011KT 15/M01 A2981 RMK A01 T01461005  RH  035%=      5-min Rain = 0
KAM1 200200Z 17011G16KT 15/M01 A2981 RMK A01 T01461005  RH  035%=      5-min Rain = 0
KAM1 200201Z 17012G18KT 15/M01 A298 RMK A01 T01461005  RH  035%=      5-min Rain = 0
KAM1 200202Z 17010KT 15/M01 A298 RMK A01 T01471005  RH  035%=      5-min Rain = 0
KAM1 200203Z 17012KT 15/M01 A298 RMK A01 T01471006  RH  035%=      5-min Rain = 0
KAM1 200204Z 17011KT 15/M01 A298 RMK A01 T01481005  RH  035%=      5-min Rain = 0
KAM1 200205Z 17010KT 15/M01 A298 RMK A01 T01481005  RH  035%=      5-min Rain = 0
KAM1 200206Z 17011KT 15/M01 A298 RMK A01 T01481005  RH  035%=      5-min Rain = 0
KAM1 200207Z 17012KT 15/M01 A298 RMK A01 T01471005  RH  035%=      5-min Rain = 0
KAM1 200208Z 16012KT 15/M01 A298 RMK A01 T01471005  RH  035%=      5-min Rain = 0
KAM1 200209Z 17012KT 15/M01 A298 RMK A01 T01461005  RH  036%=      5-min Rain = 0
KAM1 200210Z 17011KT 15/M01 A298 RMK A01 T01451005  RH  036%=      5-min Rain = 0
KAM1 200211Z 17012KT 14/M01 A298 RMK A01 T01441005  RH  036%=      5-min Rain = 0
KAM1 200212Z 16013KT 15/M00 A298 RMK A01 T01451004  RH  036%=      5-min Rain = 0
KAM1 200213Z 17010KT 14/M00 A298 RMK A01 T01441004  RH  036%=      5-min Rain = 0
KAM1 200214Z 17011KT 14/M00 A298 RMK A01 T01421004  RH  036%=      5-min Rain = 0
KAM1 200215Z 17012G19KT 14/M00 A298 RMK A01 T01411004  RH  037%=      5-min Rain = 0
KAM1 200216Z 18013KT 14/M00 A298 RMK A01 T01421004  RH  037%=      5-min Rain = 0
KAM1 200217Z 18013G19KT 14/M00 A298 RMK A01 T01441004  RH  036%=      5-min Rain = 0
KAM1 200218Z 17011KT 15/M00 A298 RMK A01 T01461004  RH  036%=      5-min Rain = 0
KAM1 200219Z 17012KT 14/M00 A298 RMK A01 T01441004  RH  036%=      5-min Rain = 0
KAM1 200220Z 17011KT 14/M01 A298 RMK A01 T01421005  RH  036%=      5-min Rain = 0
KAM1 200221Z 18011KT 14/M01 A2981 RMK A01 T01401005  RH  037%=      5-min Rain = 0
KAM1 200222Z 17010KT 14/M01 A298 RMK A01 T01381005  RH  037%=      5-min Rain = 0
KAM1 200223Z 17012KT 14/M01 A298 RMK A01 T01381005  RH  038%=      5-min Rain = 0
KAM1 200224Z 17013KT 14/M01 A298 RMK A01 T01381005  RH  038%=      5-min Rain = 0
KAM1 200225Z 17011KT 14/M01 A298 RMK A01 T01381005  RH  037%=      5-min Rain = 0
KAM1 200226Z 17010KT 14/M00 A298 RMK A01 T01391004  RH  037%=      5-min Rain = 0
KAM1 200227Z 17010KT 14/M01 A298 RMK A01 T01381005  RH  038%=      5-min Rain = 0
KAM1 200228Z 17009KT 14/M01 A298 RMK A01 T01361005  RH  038%=      5-min Rain = 0
KAM1 200229Z 16010KT 14/M01 A298 RMK A01 T01361005  RH  038%=      5-min Rain = 0
KAM1 200230Z 16011KT 14/M00 A298 RMK A01 T01351004  RH  038%=      5-min Rain = 0
KAM1 200231Z 16011KT 14/M00 A298 RMK A01 T01351004  RH  038%=      5-min Rain = 0
KAM1 200232Z 16010KT 13/M00 A298 RMK A01 T01341004  RH  039%=      5-min Rain = 0
KAM1 200233Z 17009KT 13/M01 A2981 RMK A01 T01321005  RH  039%=      5-min Rain = 0
KAM1 200234Z 17010KT 13/M01 A2981 RMK A01 T01301005  RH  039%=      5-min Rain = 0
KAM1 200235Z 17009KT 13/M01 A2981 RMK A01 T01291005  RH  040%=      5-min Rain = 0
KAM1 200236Z 17009KT 13/M01 A2981 RMK A01 T01281005  RH  040%=      5-min Rain = 0
KAM1 200237Z 17009KT 13/M01 A2981 RMK A01 T01281005  RH  040%=      5-min Rain = 0
KAM1 200238Z 17012KT 13/M01 A2981 RMK A01 T01271005  RH  040%=      5-min Rain = 0
KAM1 200239Z 17011KT 13/M01 A2981 RMK A01 T01281005  RH  040%=      5-min Rain = 0
KAM1 200240Z 17009G14KT 13/M01 A2981 RMK A01 T01281005  RH  040%=      5-min Rain = 0
KAM1 200241Z 17011KT 13/M01 A2981 RMK A01 T01281005  RH  040%=      5-min Rain = 0
KAM1 200242Z 17010KT 13/M01 A2981 RMK A01 T01281005  RH  040%=      5-min Rain = 0
KAM1 200243Z 17011KT 13/M01 A2981 RMK A01 T01281005  RH  040%=      5-min Rain = 0
KAM1 200244Z 17009KT 13/M01 A2981 RMK A01 T01271005  RH  040%=      5-min Rain = 0
KAM1 200245Z 18009KT 13/M01 A2981 RMK A01 T01261005  RH  040%=      5-min Rain = 0
KAM1 200246Z 17010KT 13/M00 A2981 RMK A01 T01261004  RH  041%=      5-min Rain = 0
KAM1 200247Z 17010KT 13/M01 A2981 RMK A01 T01261005  RH  041%=      5-min Rain = 0
KAM1 200248Z 17010KT 13/M00 A2981 RMK A01 T01271004  RH  040%=      5-min Rain = 0
KAM1 200249Z 18009KT 13/M00 A2981 RMK A01 T01271004  RH  040%=      5-min Rain = 0
KAM1 200250Z 17009KT 13/M00 A2981 RMK A01 T01271004  RH  040%=      5-min Rain = 0
KAM1 200251Z 18009KT 13/M00 A2981 RMK A01 T01261004  RH  041%=      5-min Rain = 0
KAM1 200252Z 18008KT 13/M00 A2981 RMK A01 T01261004  RH  041%=      5-min Rain = 0
KAM1 200253Z 18010KT 13/M00 A2981 RMK A01 T01251004  RH  041%=      5-min Rain = 0
KAM1 200254Z 17010KT 13/M00 A2981 RMK A01 T01251004  RH  041%=      5-min Rain = 0
KAM1 200255Z 17009KT 13/M00 A2981 RMK A01 T01251004  RH  041%=      5-min Rain = 0
KAM1 200256Z 18010KT 13/M00 A2981 RMK A01 T01251004  RH  041%=      5-min Rain = 0
KAM1 200257Z 18010KT 12/M00 A2981 RMK A01 T01241004  RH  041%=      5-min Rain = 0
KAM1 200258Z 18009KT 13/M00 A2981 RMK A01 T01251004  RH  041%=      5-min Rain = 0
KAM1 200259Z 18010KT 13/M00 A2981 RMK A01 T01251004  RH  041%=      5-min Rain = 0
KAM1 200300Z 18011KT 13/M00 A2981 RMK A01 T01251004  RH  041%=      5-min Rain = 0
KAM1 200301Z 18010KT 13/M00 A2981 RMK A01 T01251004  RH  041%=      5-min Rain = 0
KAM1 200302Z 17010KT 13/M00 A2981 RMK A01 T01251003  RH  041%=      5-min Rain = 0
KAM1 200303Z 18010KT 13/M00 A2981 RMK A01 T01251004  RH  041%=      5-min Rain = 0
KAM1 200304Z 17009KT 13/M00 A2981 RMK A01 T01251004  RH  041%=      5-min Rain = 0
KAM1 200305Z 18010KT 13/M00 A2981 RMK A01 T01251003  RH  041%=      5-min Rain = 0
KAM1 200306Z 18010KT 13/M00 A2981 RMK A01 T01251004  RH  041%=      5-min Rain = 0
KAM1 200307Z 17008KT 12/M00 A2981 RMK A01 T01241004  RH  041%=      5-min Rain = 0
KAM1 200308Z 18010KT 12/M00 A2981 RMK A01 T01241004  RH  041%=      5-min Rain = 0
KAM1 200309Z 18008KT 12/M00 A2981 RMK A01 T01231004  RH  041%=      5-min Rain = 0
KAM1 200310Z 18009KT 12/M00 A2981 RMK A01 T01231004  RH  042%=      5-min Rain = 0
KAM1 200311Z 18010KT 12/M00 A2981 RMK A01 T01231004  RH  042%=      5-min Rain = 0
KAM1 200312Z 18009KT 12/M00 A2981 RMK A01 T01231004  RH  042%=      5-min Rain = 0
KAM1 200313Z 18010KT 12/M00 A2981 RMK A01 T01231004  RH  042%=      5-min Rain = 0
KAM1 200314Z 18009KT 12/M01 A2981 RMK A01 T01221005  RH  041%=      5-min Rain = 0
KAM1 200315Z 18009KT 12/M01 A2981 RMK A01 T01231005  RH  041%=      5-min Rain = 0
KAM1 200316Z 18010KT 12/M01 A2981 RMK A01 T01231005  RH  041%=      5-min Rain = 0
KAM1 200317Z 18009KT 12/M01 A2981 RMK A01 T01231006  RH  041%=      5-min Rain = 0
KAM1 200318Z 18009KT 12/M01 A2981 RMK A01 T01231007  RH  041%=      5-min Rain = 0
KAM1 200319Z 18011KT 12/M01 A2981 RMK A01 T01231007  RH  041%=      5-min Rain = 0
KAM1 200320Z 18011KT 12/M01 A2981 RMK A01 T01231008  RH  041%=      5-min Rain = 0
KAM1 200321Z 18010KT 12/M01 A2981 RMK A01 T01231008  RH  040%=      5-min Rain = 0
KAM1 200322Z 18010KT 12/M01 A2981 RMK A01 T01241008  RH  040%=      5-min Rain = 0
KAM1 200323Z 18010KT 12/M01 A2981 RMK A01 T01231008  RH  040%=      5-min Rain = 0
KAM1 200324Z 18009KT 12/M01 A2981 RMK A01 T01231009  RH  040%=      5-min Rain = 0
KAM1 200325Z 18010KT 12/M01 A2981 RMK A01 T01221009  RH  040%=      5-min Rain = 0
KAM1 200326Z 18009KT 12/M01 A2981 RMK A01 T01211010  RH  040%=      5-min Rain = 0
KAM1 200327Z 18009KT 12/M01 A2981 RMK A01 T01201010  RH  040%=      5-min Rain = 0
KAM1 200328Z 18009KT 12/M01 A2981 RMK A01 T01201010  RH  041%=      5-min Rain = 0
KAM1 200329Z 18009KT 12/M01 A2981 RMK A01 T01191010  RH  041%=      5-min Rain = 0
KAM1 200330Z 18009KT 12/M01 A2981 RMK A01 T01191011  RH  041%=      5-min Rain = 0
KAM1 200331Z 18008KT 12/M01 A2981 RMK A01 T01191011  RH  040%=      5-min Rain = 0
KAM1 200332Z 18008KT 12/M01 A2981 RMK A01 T01191011  RH  040%=      5-min Rain = 0
KAM1 200333Z 18008KT 12/M01 A2981 RMK A01 T01191011  RH  040%=      5-min Rain = 0
KAM1 200334Z 18008KT 12/M01 A2981 RMK A01 T01191011  RH  040%=      5-min Rain = 0
KAM1 200335Z 18008KT 12/M01 A2981 RMK A01 T01181012  RH  041%=      5-min Rain = 0
KAM1 200336Z 18008KT 12/M01 A2981 RMK A01 T01181012  RH  040%=      5-min Rain = 0
KAM1 200337Z 19008KT 12/M01 A2981 RMK A01 T01181012  RH  040%=      5-min Rain = 0
KAM1 200338Z 19007KT 12/M01 A2981 RMK A01 T01171013  RH  040%=      5-min Rain = 0
KAM1 200339Z 19007KT 12/M01 A2981 RMK A01 T01161013  RH  041%=      5-min Rain = 0
KAM1 200340Z 19008KT 12/M01 A2981 RMK A01 T01161014  RH  040%=      5-min Rain = 0
KAM1 200341Z 19007KT 12/M01 A2981 RMK A01 T01161014  RH  040%=      5-min Rain = 0
KAM1 200342Z 20007KT 12/M02 A2981 RMK A01 T01171015  RH  040%=      5-min Rain = 0
KAM1 200343Z 20008KT 12/M02 A2981 RMK A01 T01171015  RH  040%=      5-min Rain = 0
KAM1 200344Z 19008KT 12/M02 A2981 RMK A01 T01171015  RH  040%=      5-min Rain = 0
KAM1 200345Z 20008KT 12/M02 A2981 RMK A01 T01171016  RH  040%=      5-min Rain = 0
KAM1 200346Z 19009KT 12/M02 A2981 RMK A01 T01171016  RH  040%=      5-min Rain = 0
KAM1 200347Z 19009KT 12/M02 A2981 RMK A01 T01181016  RH  039%=      5-min Rain = 0
KAM1 200348Z 20010KT 12/M02 A2981 RMK A01 T01201016  RH  039%=      5-min Rain = 0
KAM1 200349Z 19010KT 12/M02 A2981 RMK A01 T01221016  RH  038%=      5-min Rain = 0
KAM1 200350Z 20010KT 12/M02 A2981 RMK A01 T01231016  RH  038%=      5-min Rain = 0
KAM1 200351Z 19010KT 12/M02 A2981 RMK A01 T01231016  RH  038%=      5-min Rain = 0
KAM1 200352Z 20010KT 12/M02 A2981 RMK A01 T01241016  RH  038%=      5-min Rain = 0
KAM1 200353Z 19010KT 12/M02 A2981 RMK A01 T01241017  RH  038%=      5-min Rain = 0
KAM1 200354Z 19012KT 12/M02 A2981 RMK A01 T01241017  RH  038%=      5-min Rain = 0
KAM1 200355Z 19011KT 12/M02 A2981 RMK A01 T01241017  RH  037%=      5-min Rain = 0
KAM1 200356Z 19010KT 13/M02 A2981 RMK A01 T01251017  RH  037%=      5-min Rain = 0
KAM1 200357Z 20010KT 13/M02 A2981 RMK A01 T01251017  RH  037%=      5-min Rain = 0
KAM1 200358Z 20011KT 13/M02 A2981 RMK A01 T01251017  RH  037%=      5-min Rain = 0
KAM1 200359Z 20011KT 13/M02 A2981 RMK A01 T01251017  RH  037%=      5-min Rain = 0
KAM1 200400Z 20010KT 13/M02 A2981 RMK A01 T01251018  RH  037%=      5-min Rain = 0
KAM1 200401Z 20009KT 13/M02 A2981 RMK A01 T01251018  RH  037%=      5-min Rain = 0
KAM1 200402Z 19013KT 13/M02 A2981 RMK A01 T01251018  RH  037%=      5-min Rain = 0
KAM1 200403Z 20011KT 13/M02 A2981 RMK A01 T01261018  RH  037%=      5-min Rain = 0
KAM1 200404Z 20011KT 13/M02 A2981 RMK A01 T01261018  RH  037%=      5-min Rain = 0
KAM1 200405Z 20011KT 13/M02 A2981 RMK A01 T01261018  RH  037%=      5-min Rain = 0
KAM1 200406Z 20012KT 13/M02 A2981 RMK A01 T01261018  RH  037%=      5-min Rain = 0
KAM1 200407Z 20012KT 13/M02 A2981 RMK A01 T01271018  RH  037%=      5-min Rain = 0
KAM1 200408Z 20012KT 13/M02 A2981 RMK A01 T01281018  RH  036%=      5-min Rain = 0
KAM1 200409Z 20010KT 13/M02 A2981 RMK A01 T01281018  RH  036%=      5-min Rain = 0
KAM1 200410Z 20010KT 13/M02 A2981 RMK A01 T01281018  RH  036%=      5-min Rain = 0
KAM1 200411Z 20012KT 13/M02 A2981 RMK A01 T01281019  RH  036%=      5-min Rain = 0
KAM1 200412Z 20013KT 13/M02 A2981 RMK A01 T01281019  RH  036%=      5-min Rain = 0
KAM1 200413Z 20012KT 13/M02 A2981 RMK A01 T01291018  RH  036%=      5-min Rain = 0
KAM1 200414Z 20010KT 13/M02 A2981 RMK A01 T01301018  RH  036%=      5-min Rain = 0
KAM1 200415Z 20011KT 13/M02 A2981 RMK A01 T01291019  RH  036%=      5-min Rain = 0
KAM1 200416Z 20011KT 13/M02 A2981 RMK A01 T01291019  RH  036%=      5-min Rain = 0
KAM1 200417Z 19011KT 13/M02 A2981 RMK A01 T01281019  RH  036%=      5-min Rain = 0
KAM1 200418Z 20012KT 13/M02 A298 RMK A01 T01281019  RH  036%=      5-min Rain = 0
KAM1 200419Z 20012KT 13/M02 A298 RMK A01 T01281019  RH  036%=      5-min Rain = 0
KAM1 200420Z 20012KT 13/M02 A298 RMK A01 T01281019  RH  036%=      5-min Rain = 0
KAM1 200421Z 19010KT 13/M02 A298 RMK A01 T01281019  RH  036%=      5-min Rain = 0
KAM1 200422Z 19010KT 13/M02 A298 RMK A01 T01271019  RH  036%=      5-min Rain = 0
KAM1 200423Z 19010KT 13/M02 A298 RMK A01 T01261020  RH  036%=      5-min Rain = 0
KAM1 200424Z 19011KT 12/M02 A298 RMK A01 T01241020  RH  037%=      5-min Rain = 0
KAM1 200425Z 19012KT 12/M02 A298 RMK A01 T01241019  RH  037%=      5-min Rain = 0
KAM1 200426Z 20011KT 12/M02 A298 RMK A01 T01241019  RH  037%=      5-min Rain = 0
KAM1 200427Z 19011KT 13/M02 A298 RMK A01 T01251019  RH  037%=      5-min Rain = 0
KAM1 200428Z 19010KT 13/M02 A298 RMK A01 T01251019  RH  037%=      5-min Rain = 0
KAM1 200429Z 20011KT 12/M02 A298 RMK A01 T01241019  RH  037%=      5-min Rain = 0
KAM1 200430Z 19010KT 12/M02 A298 RMK A01 T01241019  RH  037%=      5-min Rain = 0
KAM1 200431Z 19010KT 12/M02 A298 RMK A01 T01241019  RH  037%=      5-min Rain = 0
KAM1 200432Z 20010KT 12/M02 A298 RMK A01 T01231019  RH  037%=      5-min Rain = 0
KAM1 200433Z 20011KT 12/M02 A298 RMK A01 T01231019  RH  037%=      5-min Rain = 0
KAM1 200434Z 20010KT 12/M02 A298 RMK A01 T01231019  RH  037%=      5-min Rain = 0
KAM1 200435Z 20010KT 12/M02 A298 RMK A01 T01221019  RH  037%=      5-min Rain = 0
KAM1 200436Z 20010KT 12/M02 A298 RMK A01 T01211019  RH  037%=      5-min Rain = 0
KAM1 200437Z 20011KT 12/M02 A298 RMK A01 T01211019  RH  038%=      5-min Rain = 0
KAM1 200438Z 20010KT 12/M02 A298 RMK A01 T01211019  RH  038%=      5-min Rain = 0
KAM1 200439Z 20009KT 12/M02 A298 RMK A01 T01211019  RH  038%=      5-min Rain = 0
KAM1 200440Z 20011KT 12/M02 A298 RMK A01 T01221019  RH  038%=      5-min Rain = 0
KAM1 200441Z 20010KT 12/M02 A298 RMK A01 T01221019  RH  038%=      5-min Rain = 0
KAM1 200442Z 20010KT 12/M02 A298 RMK A01 T01211019  RH  038%=      5-min Rain = 0
KAM1 200443Z 20010KT 12/M02 A298 RMK A01 T01211019  RH  038%=      5-min Rain = 0
KAM1 200444Z 21010KT 12/M02 A298 RMK A01 T01211019  RH  038%=      5-min Rain = 0
KAM1 200445Z 20011KT 12/M02 A298 RMK A01 T01211019  RH  038%=      5-min Rain = 0
KAM1 200446Z 20010KT 12/M02 A298 RMK A01 T01211019  RH  038%=      5-min Rain = 0
KAM1 200447Z 21009KT 12/M02 A298 RMK A01 T01211019  RH  038%=      5-min Rain = 0
KAM1 200448Z 21010KT 12/M02 A298 RMK A01 T01201019  RH  038%=      5-min Rain = 0
KAM1 200449Z 21010KT 12/M02 A298 RMK A01 T01201019  RH  038%=      5-min Rain = 0
KAM1 200450Z 21010KT 12/M02 A298 RMK A01 T01201018  RH  038%=      5-min Rain = 0
KAM1 200451Z 21009KT 12/M02 A298 RMK A01 T01191019  RH  038%=      5-min Rain = 0
KAM1 200452Z 21009KT 12/M02 A298 RMK A01 T01181019  RH  038%=      5-min Rain = 0
KAM1 200453Z 21011KT 12/M02 A298 RMK A01 T01181019  RH  039%=      5-min Rain = 0
KAM1 200454Z 21010KT 12/M02 A298 RMK A01 T01181018  RH  039%=      5-min Rain = 0
KAM1 200455Z 21010KT 12/M02 A2981 RMK A01 T01181018  RH  039%=      5-min Rain = 0
KAM1 200456Z 21010KT 12/M02 A2981 RMK A01 T01191018  RH  038%=      5-min Rain = 0
KAM1 200457Z 21011KT 12/M02 A2981 RMK A01 T01201018  RH  038%=      5-min Rain = 0
KAM1 200458Z 21011KT 12/M02 A298 RMK A01 T01211018  RH  038%=      5-min Rain = 0
KAM1 200459Z 21011KT 12/M02 A298 RMK A01 T01221018  RH  038%=      5-min Rain = 0
KAM1 200500Z 21011KT 12/M02 A298 RMK A01 T01231018  RH  038%=      5-min Rain = 0
KAM1 200501Z 21012KT 12/M02 A298 RMK A01 T01241018  RH  037%=      5-min Rain = 0
KAM1 200502Z 21010KT 13/M02 A298 RMK A01 T01251018  RH  037%=      5-min Rain = 0
KAM1 200503Z 21013KT 13/M02 A298 RMK A01 T01251018  RH  037%=      5-min Rain = 0
KAM1 200504Z 21011KT 13/M02 A298 RMK A01 T01251018  RH  037%=      5-min Rain = 0
KAM1 200505Z 21012G18KT 13/M02 A298 RMK A01 T01261018  RH  037%=      5-min Rain = 0
KAM1 200506Z 21011KT 13/M02 A298 RMK A01 T01261018  RH  037%=      5-min Rain = 0
KAM1 200507Z 21010KT 13/M02 A298 RMK A01 T01251018  RH  037%=      5-min Rain = 0
KAM1 200508Z 21011KT 13/M02 A298 RMK A01 T01251018  RH  037%=      5-min Rain = 0
KAM1 200509Z 21011KT 12/M02 A298 RMK A01 T01241018  RH  037%=      5-min Rain = 0
KAM1 200510Z 21012KT 12/M02 A298 RMK A01 T01231019  RH  037%=      5-min Rain = 0
KAM1 200511Z 21012KT 12/M02 A298 RMK A01 T01231018  RH  037%=      5-min Rain = 0
KAM1 200512Z 21011G16KT 12/M02 A298 RMK A01 T01231019  RH  037%=      5-min Rain = 0
KAM1 200513Z 21013KT 12/M02 A298 RMK A01 T01241018  RH  037%=      5-min Rain = 0
KAM1 200514Z 21012KT 13/M02 A298 RMK A01 T01251018  RH  037%=      5-min Rain = 0
KAM1 200515Z 21010KT 13/M02 A298 RMK A01 T01261018  RH  037%=      5-min Rain = 0
KAM1 200516Z 21012KT 13/M02 A298 RMK A01 T01261018  RH  037%=      5-min Rain = 0
KAM1 200517Z 21011KT 13/M02 A298 RMK A01 T01251018  RH  037%=      5-min Rain = 0
KAM1 200518Z 21012KT 12/M02 A298 RMK A01 T01241018  RH  037%=      5-min Rain = 0
KAM1 200519Z 21011KT 12/M02 A298 RMK A01 T01241018  RH  037%=      5-min Rain = 0
KAM1 200520Z 22010KT 12/M02 A298 RMK A01 T01241018  RH  037%=      5-min Rain = 0
KAM1 200521Z 21011KT 12/M02 A298 RMK A01 T01231018  RH  037%=      5-min Rain = 0
KAM1 200522Z 21011KT 12/M02 A298 RMK A01 T01231018  RH  038%=      5-min Rain = 0
KAM1 200523Z 21011KT 12/M02 A298 RMK A01 T01231018  RH  038%=      5-min Rain = 0
KAM1 200524Z 21009KT 12/M02 A298 RMK A01 T01221018  RH  038%=      5-min Rain = 0
KAM1 200525Z 21010KT 12/M02 A298 RMK A01 T01221018  RH  038%=      5-min Rain = 0
KAM1 200526Z 21012KT 12/M02 A298 RMK A01 T01211018  RH  038%=      5-min Rain = 0
KAM1 200527Z 21010KT 12/M02 A298 RMK A01 T01211018  RH  038%=      5-min Rain = 0
KAM1 200528Z 21011KT 12/M02 A298 RMK A01 T01211018  RH  038%=      5-min Rain = 0
KAM1 200529Z 21010KT 12/M02 A298 RMK A01 T01201018  RH  038%=      5-min Rain = 0
KAM1 200530Z 21011KT 12/M02 A298 RMK A01 T01201018  RH  038%=      5-min Rain = 0
KAM1 200531Z 21011KT 12/M02 A298 RMK A01 T01191018  RH  038%=      5-min Rain = 0
KAM1 200532Z 21010KT 12/M02 A298 RMK A01 T01201018  RH  038%=      5-min Rain = 0
KAM1 200533Z 21011KT 12/M02 A298 RMK A01 T01201018  RH  038%=      5-min Rain = 0
KAM1 200534Z 21011KT 12/M02 A298 RMK A01 T01211017  RH  038%=      5-min Rain = 0
KAM1 200535Z 21011KT 12/M02 A298 RMK A01 T01211017  RH  038%=      5-min Rain = 0
KAM1 200536Z 21010KT 12/M02 A298 RMK A01 T01211018  RH  038%=      5-min Rain = 0
KAM1 200537Z 21010KT 12/M02 A298 RMK A01 T01221017  RH  038%=      5-min Rain = 0
KAM1 200538Z 21010KT 12/M02 A298 RMK A01 T01221017  RH  038%=      5-min Rain = 0
KAM1 200539Z 21009KT 12/M02 A298 RMK A01 T01221017  RH  038%=      5-min Rain = 0
KAM1 200540Z 21010KT 12/M02 A298 RMK A01 T01211017  RH  038%=      5-min Rain = 0
KAM1 200541Z 21009KT 12/M02 A298 RMK A01 T01211017  RH  038%=      5-min Rain = 0
KAM1 200542Z 20009KT 12/M02 A298 RMK A01 T01221017  RH  038%=      5-min Rain = 0
KAM1 200543Z 21010KT 12/M02 A298 RMK A01 T01221017  RH  038%=      5-min Rain = 0
KAM1 200544Z 21010KT 12/M02 A298 RMK A01 T01231017  RH  038%=      5-min Rain = 0
KAM1 200545Z 21010KT 12/M02 A298 RMK A01 T01231017  RH  038%=      5-min Rain = 0
KAM1 200546Z 21011KT 12/M02 A298 RMK A01 T01231018  RH  038%=      5-min Rain = 0
KAM1 200547Z 21009KT 12/M02 A298 RMK A01 T01231018  RH  038%=      5-min Rain = 0
KAM1 200548Z 21009KT 12/M02 A298 RMK A01 T01231018  RH  038%=      5-min Rain = 0
KAM1 200549Z 21009KT 12/M02 A298 RMK A01 T01221018  RH  038%=      5-min Rain = 0
KAM1 200550Z 21009KT 12/M02 A298 RMK A01 T01221018  RH  038%=      5-min Rain = 0
KAM1 200551Z 21009KT 12/M02 A298 RMK A01 T01211018  RH  038%=      5-min Rain = 0
KAM1 200552Z 21009KT 12/M02 A298 RMK A01 T01201018  RH  038%=      5-min Rain = 0
KAM1 200553Z 21010KT 12/M02 A298 RMK A01 T01181018  RH  039%=      5-min Rain = 0
KAM1 200554Z 21009KT 12/M02 A298 RMK A01 T01181017  RH  039%=      5-min Rain = 0
KAM1 200555Z 21011KT 12/M02 A298 RMK A01 T01181017  RH  039%=      5-min Rain = 0
KAM1 200556Z 21011KT 12/M02 A298 RMK A01 T01181017  RH  039%=      5-min Rain = 0
KAM1 200557Z 21011KT 12/M02 A2979 RMK A01 T01181017  RH  039%=      5-min Rain = 0
KAM1 200558Z 21010KT 12/M02 A2979 RMK A01 T01191017  RH  039%=      5-min Rain = 0
KAM1 200559Z 21013KT 12/M02 A2979 RMK A01 T01191017  RH  039%=      5-min Rain = 0

Page generated in 0.0749 seconds.